Time,TemperatureF,DewpointF,PressureIn,WindDirection,WindDirectionDegrees,WindSpeedMPH,WindSpeedGustMPH,Humidity,HourlyPrecipIn,Conditions,Clouds,dailyrainin,SoftwareType,DateUTC
2013-01-06 00:00:00,31.1,20.7,29.00,East,91,0.0,0.0,65,0.00,,,0.00,VWS V14.00,2013-01-06 05:00:00,
2013-01-06 00:01:00,31.1,20.7,29.00,East,93,2.2,2.2,65,0.00,,,0.00,VWS V14.00,2013-01-06 05:01:00,
2013-01-06 00:02:00,31.1,20.7,29.00,SW,215,0.0,0.0,65,0.00,,,0.00,VWS V14.00,2013-01-06 05:02:00,
2013-01-06 00:05:00,31.3,20.9,29.00,ENE,69,0.0,0.0,65,0.00,,,0.00,VWS V14.00,2013-01-06 05:05:00,
2013-01-06 00:06:00,31.3,21.3,29.00,East,99,4.9,4.9,66,0.00,,,0.00,VWS V14.00,2013-01-06 05:06:00,
2013-01-06 00:07:00,31.3,21.3,29.00,ENE,77,3.1,3.1,66,0.00,,,0.00,VWS V14.00,2013-01-06 05:07:00,
2013-01-06 00:10:00,31.3,21.3,29.00,ENE,73,0.0,0.0,66,0.00,,,0.00,VWS V14.00,2013-01-06 05:10:00,
2013-01-06 00:11:00,31.3,21.3,29.00,East,95,0.0,0.0,66,0.00,,,0.00,VWS V14.00,2013-01-06 05:11:00,
2013-01-06 00:12:00,31.3,21.3,29.00,ESE,106,0.0,0.0,66,0.00,,,0.00,VWS V14.00,2013-01-06 05:12:00,
2013-01-06 00:15:00,31.5,21.4,29.00,East,83,2.7,2.7,66,0.00,,,0.00,VWS V14.00,2013-01-06 05:15:00,
2013-01-06 00:17:00,31.5,21.4,29.00,East,85,0.0,0.0,66,0.00,,,0.00,VWS V14.00,2013-01-06 05:17:00,
2013-01-06 00:20:00,31.5,21.4,29.00,East,89,0.0,0.0,66,0.00,,,0.00,VWS V14.00,2013-01-06 05:20:00,
2013-01-06 00:22:00,31.5,21.8,29.00,East,89,0.0,0.0,67,0.00,,,0.00,VWS V14.00,2013-01-06 05:22:00,
2013-01-06 00:23:00,31.5,21.8,29.00,East,89,0.0,0.0,67,0.00,,,0.00,VWS V14.00,2013-01-06 05:23:00,
2013-01-06 00:26:00,31.5,21.8,29.00,ESE,104,0.0,0.0,67,0.00,,,0.00,VWS V14.00,2013-01-06 05:26:00,
2013-01-06 00:27:00,31.5,21.8,29.00,East,97,0.0,0.0,67,0.00,,,0.00,VWS V14.00,2013-01-06 05:27:00,
2013-01-06 00:28:00,31.5,21.8,29.00,East,97,0.0,0.0,67,0.00,,,0.00,VWS V14.00,2013-01-06 05:28:00,
2013-01-06 00:30:00,31.5,21.8,29.00,ENE,73,0.0,0.0,67,0.00,,,0.00,VWS V14.00,2013-01-06 05:30:00,
2013-01-06 00:31:00,31.5,21.8,29.00,ENE,73,0.0,0.0,67,0.00,,,0.00,VWS V14.00,2013-01-06 05:31:00,
2013-01-06 00:32:00,31.5,21.8,29.00,ESE,103,0.0,0.0,67,0.00,,,0.00,VWS V14.00,2013-01-06 05:32:00,
2013-01-06 00:33:00,31.5,21.8,29.00,ESE,103,0.0,0.0,67,0.00,,,0.00,VWS V14.00,2013-01-06 05:33:00,
2013-01-06 00:36:00,31.5,21.8,29.00,East,86,0.0,0.0,67,0.00,,,0.00,VWS V14.00,2013-01-06 05:36:00,
2013-01-06 00:37:00,31.5,21.8,29.00,SSE,159,0.0,0.0,67,0.00,,,0.00,VWS V14.00,2013-01-06 05:37:00,
2013-01-06 00:38:00,31.5,21.8,29.00,East,100,0.0,0.0,67,0.00,,,0.00,VWS V14.00,2013-01-06 05:38:00,
2013-01-06 00:41:00,31.5,21.8,29.00,East,95,0.0,0.0,67,0.00,,,0.00,VWS V14.00,2013-01-06 05:41:00,
2013-01-06 00:43:00,31.5,21.8,29.00,East,97,0.0,0.0,67,0.00,,,0.00,VWS V14.00,2013-01-06 05:43:00,
2013-01-06 00:46:00,31.5,22.1,29.00,East,86,0.0,0.0,68,0.00,,,0.00,VWS V14.00,2013-01-06 05:46:00,
2013-01-06 00:48:00,31.5,22.1,29.00,NW,322,0.0,0.0,68,0.00,,,0.00,VWS V14.00,2013-01-06 05:48:00,
2013-01-06 00:49:00,31.5,22.1,29.00,ENE,77,0.0,0.0,68,0.00,,,0.00,VWS V14.00,2013-01-06 05:49:00,
2013-01-06 00:51:00,31.5,22.1,29.00,ENE,72,0.0,0.0,68,0.00,,,0.00,VWS V14.00,2013-01-06 05:51:00,
2013-01-06 00:53:00,31.5,22.1,29.00,East,89,0.0,0.0,68,0.00,,,0.00,VWS V14.00,2013-01-06 05:53:00,
2013-01-06 00:54:00,31.5,22.1,29.00,East,93,0.0,0.0,68,0.00,,,0.00,VWS V14.00,2013-01-06 05:54:00,
2013-01-06 00:56:00,31.5,22.1,28.97,ENE,69,3.6,3.6,68,0.00,,,0.00,VWS V14.00,2013-01-06 05:56:00,
2013-01-06 00:58:00,31.5,22.1,28.97,East,88,0.0,0.0,68,0.00,,,0.00,VWS V14.00,2013-01-06 05:58:00,
2013-01-06 00:59:00,31.6,22.3,28.97,East,92,0.0,0.0,68,0.00,,,0.00,VWS V14.00,2013-01-06 05:59:00,
2013-01-06 01:01:00,31.6,22.3,28.97,North,357,2.7,2.7,68,0.00,,,0.00,VWS V14.00,2013-01-06 06:01:00,
2013-01-06 01:03:00,31.6,22.3,28.97,ESE,113,0.0,0.0,68,0.00,,,0.00,VWS V14.00,2013-01-06 06:03:00,
2013-01-06 01:04:00,31.6,22.3,28.97,ESE,112,0.0,0.0,68,0.00,,,0.00,VWS V14.00,2013-01-06 06:04:00,
2013-01-06 01:06:00,31.6,22.3,28.97,ENE,76,0.0,0.0,68,0.00,,,0.00,VWS V14.00,2013-01-06 06:06:00,
2013-01-06 01:07:00,31.6,22.3,28.97,ENE,76,0.0,0.0,68,0.00,,,0.00,VWS V14.00,2013-01-06 06:07:00,
2013-01-06 01:08:00,31.6,22.6,28.97,ENE,75,0.0,0.0,69,0.00,,,0.00,VWS V14.00,2013-01-06 06:08:00,
2013-01-06 01:09:00,31.6,22.6,28.97,ENE,75,0.0,0.0,69,0.00,,,0.00,VWS V14.00,2013-01-06 06:09:00,
2013-01-06 01:11:00,31.6,22.6,28.97,ENE,71,0.0,0.0,69,0.00,,,0.00,VWS V14.00,2013-01-06 06:11:00,
2013-01-06 01:12:00,31.6,22.6,28.97,ENE,70,0.0,0.0,69,0.00,,,0.00,VWS V14.00,2013-01-06 06:12:00,
2013-01-06 01:13:00,31.8,22.8,28.97,East,79,0.0,0.0,69,0.00,,,0.00,VWS V14.00,2013-01-06 06:13:00,
2013-01-06 01:14:00,31.8,22.8,28.97,SE,127,0.0,0.0,69,0.00,,,0.00,VWS V14.00,2013-01-06 06:14:00,
2013-01-06 01:16:00,31.8,22.8,28.97,ESE,109,0.0,0.0,69,0.00,,,0.00,VWS V14.00,2013-01-06 06:16:00,
2013-01-06 01:17:00,31.8,22.8,28.97,ESE,110,0.0,0.0,69,0.00,,,0.00,VWS V14.00,2013-01-06 06:17:00,
2013-01-06 01:19:00,31.8,22.8,28.97,East,85,0.0,0.0,69,0.00,,,0.00,VWS V14.00,2013-01-06 06:19:00,
2013-01-06 01:20:00,31.8,22.8,28.97,East,85,0.0,0.0,69,0.00,,,0.00,VWS V14.00,2013-01-06 06:20:00,
2013-01-06 01:21:00,31.8,22.8,28.97,East,90,0.0,0.0,69,0.00,,,0.00,VWS V14.00,2013-01-06 06:21:00,
2013-01-06 01:22:00,31.8,22.8,28.97,ENE,75,0.0,0.0,69,0.00,,,0.00,VWS V14.00,2013-01-06 06:22:00,
2013-01-06 01:24:00,32.0,23.0,28.97,ENE,78,0.0,0.0,69,0.00,,,0.00,VWS V14.00,2013-01-06 06:24:00,
2013-01-06 01:25:00,32.0,23.0,28.97,ESE,111,0.0,0.0,69,0.00,,,0.00,VWS V14.00,2013-01-06 06:25:00,
2013-01-06 01:26:00,32.0,23.0,28.97,ESE,110,0.0,0.0,69,0.00,,,0.00,VWS V14.00,2013-01-06 06:26:00,
2013-01-06 01:27:00,32.0,23.0,28.97,ESE,111,3.1,3.1,69,0.00,,,0.00,VWS V14.00,2013-01-06 06:27:00,
2013-01-06 01:29:00,32.0,23.0,28.97,SW,228,0.0,0.0,69,0.00,,,0.00,VWS V14.00,2013-01-06 06:29:00,
2013-01-06 01:30:00,32.0,23.0,28.97,East,80,2.2,2.2,69,0.00,,,0.00,VWS V14.00,2013-01-06 06:30:00,
2013-01-06 01:31:00,32.0,23.0,28.97,East,91,0.0,0.0,69,0.00,,,0.00,VWS V14.00,2013-01-06 06:31:00,
2013-01-06 01:32:00,32.2,23.2,28.97,East,81,0.0,0.0,69,0.00,,,0.00,VWS V14.00,2013-01-06 06:32:00,
2013-01-06 01:34:00,32.2,23.5,28.97,East,88,0.0,0.0,70,0.00,,,0.00,VWS V14.00,2013-01-06 06:34:00,
2013-01-06 01:35:00,32.2,23.5,28.97,East,98,0.0,0.0,70,0.00,,,0.00,VWS V14.00,2013-01-06 06:35:00,
2013-01-06 01:36:00,32.2,23.5,28.97,East,81,0.0,0.0,70,0.00,,,0.00,VWS V14.00,2013-01-06 06:36:00,
2013-01-06 01:37:00,32.2,23.5,28.97,East,81,0.0,0.0,70,0.00,,,0.00,VWS V14.00,2013-01-06 06:37:00,
2013-01-06 01:39:00,32.2,23.5,28.97,East,85,0.0,0.0,70,0.00,,,0.00,VWS V14.00,2013-01-06 06:39:00,
2013-01-06 01:40:00,32.2,23.5,28.97,SE,124,0.0,0.0,70,0.00,,,0.00,VWS V14.00,2013-01-06 06:40:00,
2013-01-06 01:42:00,32.2,23.5,28.97,ENE,63,3.6,3.6,70,0.00,,,0.00,VWS V14.00,2013-01-06 06:42:00,
2013-01-06 01:44:00,32.2,23.5,28.97,ENE,59,3.1,3.1,70,0.00,,,0.00,VWS V14.00,2013-01-06 06:44:00,
2013-01-06 01:45:00,32.2,23.5,28.97,East,93,2.2,2.2,70,0.00,,,0.00,VWS V14.00,2013-01-06 06:45:00,
2013-01-06 01:47:00,32.2,23.5,28.97,ENE,77,0.0,0.0,70,0.00,,,0.00,VWS V14.00,2013-01-06 06:47:00,
2013-01-06 01:49:00,32.2,23.5,28.97,East,92,0.0,0.0,70,0.00,,,0.00,VWS V14.00,2013-01-06 06:49:00,
2013-01-06 01:50:00,32.2,23.5,28.97,ESE,103,2.2,2.2,70,0.00,,,0.00,VWS V14.00,2013-01-06 06:50:00,
2013-01-06 01:52:00,32.2,23.5,28.97,ESE,104,2.2,2.2,70,0.00,,,0.00,VWS V14.00,2013-01-06 06:52:00,
2013-01-06 01:54:00,32.2,23.5,28.97,ENE,72,0.0,0.0,70,0.00,,,0.00,VWS V14.00,2013-01-06 06:54:00,
2013-01-06 01:55:00,32.4,23.7,28.97,East,96,0.0,0.0,70,0.00,,,0.00,VWS V14.00,2013-01-06 06:55:00,
2013-01-06 01:57:00,32.4,23.7,28.97,East,93,0.0,0.0,70,0.00,,,0.00,VWS V14.00,2013-01-06 06:57:00,
2013-01-06 01:59:00,32.4,23.7,28.97,ENE,77,3.6,3.6,70,0.00,,,0.00,VWS V14.00,2013-01-06 06:59:00,
2013-01-06 02:00:00,32.4,23.7,28.97,WSW,251,2.7,2.7,70,0.00,,,0.00,VWS V14.00,2013-01-06 07:00:00,
2013-01-06 02:02:00,32.4,23.7,28.97,ENE,62,0.0,0.0,70,0.00,,OVC029,0.00,VWS V14.00,2013-01-06 07:02:00,
2013-01-06 02:03:00,32.4,23.7,28.97,ENE,62,0.0,0.0,70,0.00,,OVC029,0.00,VWS V14.00,2013-01-06 07:03:00,
2013-01-06 02:04:00,32.4,23.7,28.97,NE,52,0.0,0.0,70,0.00,,OVC029,0.00,VWS V14.00,2013-01-06 07:04:00,
2013-01-06 02:06:00,32.4,23.7,28.97,ESE,102,0.0,0.0,70,0.00,,OVC029,0.00,VWS V14.00,2013-01-06 07:06:00,
2013-01-06 02:07:00,32.4,23.7,28.97,SW,216,0.0,0.0,70,0.00,,OVC029,0.00,VWS V14.00,2013-01-06 07:07:00,
2013-01-06 02:08:00,32.4,23.7,28.97,East,84,0.0,0.0,70,0.00,,OVC029,0.00,VWS V14.00,2013-01-06 07:08:00,
2013-01-06 02:09:00,32.4,23.7,28.97,East,85,0.0,0.0,70,0.00,,OVC029,0.00,VWS V14.00,2013-01-06 07:09:00,
2013-01-06 02:11:00,32.4,23.7,28.94,WSW,249,0.0,0.0,70,0.00,,OVC029,0.00,VWS V14.00,2013-01-06 07:11:00,
2013-01-06 02:12:00,32.4,23.7,28.94,East,79,0.0,0.0,70,0.00,,OVC029,0.00,VWS V14.00,2013-01-06 07:12:00,
2013-01-06 02:13:00,32.4,23.7,28.94,East,81,0.0,0.0,70,0.00,,OVC029,0.00,VWS V14.00,2013-01-06 07:13:00,
2013-01-06 02:14:00,32.4,23.7,28.94,East,92,2.7,2.7,70,0.00,,OVC029,0.00,VWS V14.00,2013-01-06 07:14:00,
2013-01-06 02:16:00,32.4,24.0,28.94,East,94,0.0,0.0,71,0.00,,OVC029,0.00,VWS V14.00,2013-01-06 07:16:00,
2013-01-06 02:18:00,32.4,24.0,28.94,West,279,0.0,0.0,71,0.00,,OVC025,0.00,VWS V14.00,2013-01-06 07:18:00,
2013-01-06 02:20:00,32.4,24.0,28.94,ENE,77,0.0,0.0,71,0.00,,OVC025,0.00,VWS V14.00,2013-01-06 07:20:00,
2013-01-06 02:21:00,32.4,24.0,28.94,East,82,0.0,0.0,71,0.00,,OVC025,0.00,VWS V14.00,2013-01-06 07:21:00,
2013-01-06 02:23:00,32.4,24.0,28.94,SE,125,0.0,0.0,71,0.00,,OVC025,0.00,VWS V14.00,2013-01-06 07:23:00,
2013-01-06 02:25:00,32.4,24.0,28.94,East,87,0.0,0.0,71,0.00,,OVC025,0.00,VWS V14.00,2013-01-06 07:25:00,
2013-01-06 02:26:00,32.4,24.0,28.94,East,98,0.0,0.0,71,0.00,,OVC025,0.00,VWS V14.00,2013-01-06 07:26:00,
2013-01-06 02:28:00,32.4,24.0,28.94,WSW,250,0.0,0.0,71,0.00,,OVC025,0.00,VWS V14.00,2013-01-06 07:28:00,
2013-01-06 02:30:00,32.4,24.0,28.94,ESE,111,3.1,3.1,71,0.00,,OVC025,0.00,VWS V14.00,2013-01-06 07:30:00,
2013-01-06 02:31:00,32.4,24.0,28.94,NE,53,3.1,3.1,71,0.00,,OVC025,0.00,VWS V14.00,2013-01-06 07:31:00,
2013-01-06 02:33:00,32.4,24.0,28.94,East,88,0.0,0.0,71,0.00,,OVC025,0.00,VWS V14.00,2013-01-06 07:33:00,
2013-01-06 02:35:00,32.4,24.0,28.94,East,88,0.0,0.0,71,0.00,,OVC025,0.00,VWS V14.00,2013-01-06 07:35:00,
2013-01-06 02:36:00,32.4,24.0,28.94,East,87,2.2,2.2,71,0.00,,OVC025,0.00,VWS V14.00,2013-01-06 07:36:00,
2013-01-06 02:38:00,32.4,24.0,28.94,East,87,0.0,0.0,71,0.00,,OVC025,0.00,VWS V14.00,2013-01-06 07:38:00,
2013-01-06 02:40:00,32.4,24.0,28.94,West,274,0.0,0.0,71,0.00,,OVC025,0.00,VWS V14.00,2013-01-06 07:40:00,
2013-01-06 02:41:00,32.4,24.0,28.94,ENE,62,0.0,0.0,71,0.00,,OVC025,0.00,VWS V14.00,2013-01-06 07:41:00,
2013-01-06 02:43:00,32.4,24.0,28.94,SE,133,3.1,3.1,71,0.00,,OVC025,0.00,VWS V14.00,2013-01-06 07:43:00,
2013-01-06 02:45:00,32.4,24.0,28.94,South,169,3.1,3.1,71,0.00,,OVC025,0.00,VWS V14.00,2013-01-06 07:45:00,
2013-01-06 02:46:00,32.4,24.0,28.94,East,93,4.0,4.0,71,0.00,,OVC025,0.00,VWS V14.00,2013-01-06 07:46:00,
2013-01-06 02:49:00,32.4,24.0,28.94,ENE,77,4.0,4.0,71,0.00,,OVC025,0.00,VWS V14.00,2013-01-06 07:49:00,
2013-01-06 02:50:00,32.4,24.0,28.94,ESE,109,7.6,7.6,71,0.00,,OVC025,0.00,VWS V14.00,2013-01-06 07:50:00,
2013-01-06 02:51:00,32.4,24.0,28.94,ENE,76,3.1,3.1,71,0.00,,OVC025,0.00,VWS V14.00,2013-01-06 07:51:00,
2013-01-06 02:54:00,32.5,24.2,28.94,North,9,0.0,0.0,71,0.00,,OVC025,0.00,VWS V14.00,2013-01-06 07:54:00,
2013-01-06 02:55:00,32.5,24.2,28.94,East,92,3.1,3.1,71,0.00,,OVC025,0.00,VWS V14.00,2013-01-06 07:55:00,
2013-01-06 02:57:00,32.5,24.2,28.94,East,92,0.0,0.0,71,0.00,,OVC017,0.00,VWS V14.00,2013-01-06 07:57:00,
2013-01-06 02:59:00,32.5,24.2,28.94,East,87,2.7,2.7,71,0.00,,OVC017,0.00,VWS V14.00,2013-01-06 07:59:00,
2013-01-06 03:00:00,32.5,24.2,28.94,ENE,65,0.0,0.0,71,0.00,,OVC017,0.00,VWS V14.00,2013-01-06 08:00:00,
2013-01-06 03:02:00,32.5,24.2,28.94,East,85,2.7,2.7,71,0.00,,OVC017,0.00,VWS V14.00,2013-01-06 08:02:00,
2013-01-06 03:04:00,32.5,24.2,28.94,East,94,2.2,2.2,71,0.00,,OVC017,0.00,VWS V14.00,2013-01-06 08:04:00,
2013-01-06 03:05:00,32.5,24.2,28.94,East,98,0.0,0.0,71,0.00,,OVC017,0.00,VWS V14.00,2013-01-06 08:05:00,
2013-01-06 03:07:00,32.5,24.2,28.94,ENE,74,3.1,3.1,71,0.00,,OVC017,0.00,VWS V14.00,2013-01-06 08:07:00,
2013-01-06 03:09:00,32.5,24.2,28.94,SE,130,3.1,3.1,71,0.00,,OVC017,0.00,VWS V14.00,2013-01-06 08:09:00,
2013-01-06 03:10:00,32.5,24.2,28.94,East,97,0.0,0.0,71,0.00,,OVC017,0.00,VWS V14.00,2013-01-06 08:10:00,
2013-01-06 03:12:00,32.5,24.2,28.94,East,89,3.1,3.1,71,0.00,,OVC017,0.00,VWS V14.00,2013-01-06 08:12:00,
2013-01-06 03:14:00,32.5,24.2,28.94,East,94,2.2,2.2,71,0.00,,OVC017,0.00,VWS V14.00,2013-01-06 08:14:00,
2013-01-06 03:15:00,32.5,24.2,28.94,East,96,2.2,2.2,71,0.00,,OVC017,0.00,VWS V14.00,2013-01-06 08:15:00,
2013-01-06 03:17:00,32.5,24.2,28.94,ENE,78,0.0,0.0,71,0.00,,OVC017,0.00,VWS V14.00,2013-01-06 08:17:00,
2013-01-06 03:19:00,32.5,24.2,28.94,ESE,105,2.7,2.7,71,0.00,,OVC017,0.00,VWS V14.00,2013-01-06 08:19:00,
2013-01-06 03:20:00,32.5,24.2,28.94,East,86,2.7,2.7,71,0.00,,OVC017,0.00,VWS V14.00,2013-01-06 08:20:00,
2013-01-06 03:21:00,32.5,24.2,28.94,East,86,0.0,0.0,71,0.00,,OVC017,0.00,VWS V14.00,2013-01-06 08:21:00,
2013-01-06 03:22:00,32.5,24.2,28.94,East,93,2.2,2.2,71,0.00,,OVC017,0.00,VWS V14.00,2013-01-06 08:22:00,
2013-01-06 03:24:00,32.5,24.2,28.94,NE,44,0.0,0.0,71,0.00,,OVC017,0.00,VWS V14.00,2013-01-06 08:24:00,
2013-01-06 03:25:00,32.5,24.2,28.94,South,180,0.0,0.0,71,0.00,,OVC017,0.00,VWS V14.00,2013-01-06 08:25:00,
2013-01-06 03:26:00,32.5,24.2,28.94,ESE,111,0.0,0.0,71,0.00,,OVC017,0.00,VWS V14.00,2013-01-06 08:26:00,
2013-01-06 03:27:00,32.5,24.2,28.94,ESE,113,3.1,3.1,71,0.00,,OVC017,0.00,VWS V14.00,2013-01-06 08:27:00,
2013-01-06 03:29:00,32.5,24.2,28.94,ESE,115,0.0,0.0,71,0.00,,OVC017,0.00,VWS V14.00,2013-01-06 08:29:00,
2013-01-06 03:30:00,32.5,24.2,28.94,ENE,65,2.7,2.7,71,0.00,,OVC017,0.00,VWS V14.00,2013-01-06 08:30:00,
2013-01-06 03:31:00,32.5,24.2,28.94,East,100,0.0,0.0,71,0.00,,OVC017,0.00,VWS V14.00,2013-01-06 08:31:00,
2013-01-06 03:33:00,32.5,24.2,28.94,East,81,3.1,3.1,71,0.00,,OVC017,0.00,VWS V14.00,2013-01-06 08:33:00,
2013-01-06 03:34:00,32.5,24.2,28.94,East,99,2.2,2.2,71,0.00,,OVC017,0.00,VWS V14.00,2013-01-06 08:34:00,
2013-01-06 03:35:00,32.5,24.2,28.94,ENE,76,0.0,0.0,71,0.00,,OVC017,0.00,VWS V14.00,2013-01-06 08:35:00,
2013-01-06 03:36:00,32.5,24.2,28.94,ESE,102,0.0,0.0,71,0.00,,OVC017,0.00,VWS V14.00,2013-01-06 08:36:00,
2013-01-06 03:38:00,32.5,24.2,28.94,East,80,0.0,0.0,71,0.00,,OVC017,0.00,VWS V14.00,2013-01-06 08:38:00,
2013-01-06 03:39:00,32.5,24.2,28.94,ESE,108,2.2,2.2,71,0.00,,OVC017,0.00,VWS V14.00,2013-01-06 08:39:00,
2013-01-06 03:40:00,32.5,24.2,28.94,East,90,0.0,0.0,71,0.00,,OVC017,0.00,VWS V14.00,2013-01-06 08:40:00,
2013-01-06 03:41:00,32.5,24.2,28.94,ENE,70,3.1,3.1,71,0.00,,OVC017,0.00,VWS V14.00,2013-01-06 08:41:00,
2013-01-06 03:43:00,32.5,24.2,28.94,ENE,74,0.0,0.0,71,0.00,,OVC017,0.00,VWS V14.00,2013-01-06 08:43:00,
2013-01-06 03:44:00,32.5,24.2,28.94,ESE,123,2.7,2.7,71,0.00,,OVC017,0.00,VWS V14.00,2013-01-06 08:44:00,
2013-01-06 03:46:00,32.5,24.2,28.94,East,86,0.0,0.0,71,0.00,,OVC017,0.00,VWS V14.00,2013-01-06 08:46:00,
2013-01-06 03:47:00,32.7,24.4,28.94,East,97,0.0,0.0,71,0.00,,OVC017,0.00,VWS V14.00,2013-01-06 08:47:00,
2013-01-06 03:48:00,32.7,24.0,28.94,SE,125,2.2,2.2,70,0.00,,OVC017,0.00,VWS V14.00,2013-01-06 08:48:00,
2013-01-06 03:49:00,32.7,24.0,28.94,South,176,3.1,3.1,70,0.00,,OVC017,0.00,VWS V14.00,2013-01-06 08:49:00,
2013-01-06 03:51:00,32.7,24.0,28.94,East,81,0.0,0.0,70,0.00,,OVC017,0.00,VWS V14.00,2013-01-06 08:51:00,
2013-01-06 03:52:00,32.7,24.0,28.94,East,101,3.1,3.1,70,0.00,,OVC017,0.00,VWS V14.00,2013-01-06 08:52:00,
2013-01-06 03:53:00,32.7,24.0,28.94,ESE,109,0.0,0.0,70,0.00,,OVC017,0.00,VWS V14.00,2013-01-06 08:53:00,
2013-01-06 03:54:00,32.7,24.0,28.94,East,84,2.2,2.2,70,0.00,,OVC017,0.00,VWS V14.00,2013-01-06 08:54:00,
2013-01-06 03:56:00,32.7,24.0,28.94,East,88,0.0,0.0,70,0.00,,OVC017,0.00,VWS V14.00,2013-01-06 08:56:00,
2013-01-06 03:57:00,32.7,24.0,28.94,East,100,0.0,0.0,70,0.00,,OVC017,0.00,VWS V14.00,2013-01-06 08:57:00,
2013-01-06 03:58:00,32.7,24.0,28.94,ENE,66,0.0,0.0,70,0.00,,OVC017,0.00,VWS V14.00,2013-01-06 08:58:00,
2013-01-06 04:00:00,32.7,24.0,28.94,ENE,77,2.2,2.2,70,0.00,,OVC017,0.00,VWS V14.00,2013-01-06 09:00:00,
2013-01-06 04:01:00,32.7,24.0,28.94,East,99,2.7,2.7,70,0.00,,OVC017,0.00,VWS V14.00,2013-01-06 09:01:00,
2013-01-06 04:02:00,32.7,24.0,28.94,SE,142,2.7,2.7,70,0.00,,OVC015,0.00,VWS V14.00,2013-01-06 09:02:00,
2013-01-06 04:03:00,32.7,24.0,28.94,East,96,0.0,0.0,70,0.00,,OVC015,0.00,VWS V14.00,2013-01-06 09:03:00,
2013-01-06 04:05:00,32.7,24.0,28.94,East,91,2.2,2.2,70,0.00,,OVC015,0.00,VWS V14.00,2013-01-06 09:05:00,
2013-01-06 04:06:00,32.7,24.0,28.94,East,82,2.7,2.7,70,0.00,,OVC015,0.00,VWS V14.00,2013-01-06 09:06:00,
2013-01-06 04:07:00,32.7,24.0,28.94,NNW,338,0.0,0.0,70,0.00,,OVC015,0.00,VWS V14.00,2013-01-06 09:07:00,
2013-01-06 04:08:00,32.7,24.0,28.94,ENE,70,3.6,3.6,70,0.00,,OVC015,0.00,VWS V14.00,2013-01-06 09:08:00,
2013-01-06 04:10:00,32.7,24.0,28.94,East,99,0.0,0.0,70,0.00,,OVC015,0.00,VWS V14.00,2013-01-06 09:10:00,
2013-01-06 04:11:00,32.7,24.0,28.94,ESE,102,0.0,0.0,70,0.00,,OVC015,0.00,VWS V14.00,2013-01-06 09:11:00,
2013-01-06 04:12:00,32.7,24.0,28.94,ESE,110,0.0,0.0,70,0.00,,OVC015,0.00,VWS V14.00,2013-01-06 09:12:00,
2013-01-06 04:13:00,32.7,24.0,28.94,East,87,0.0,0.0,70,0.00,,OVC015,0.00,VWS V14.00,2013-01-06 09:13:00,
2013-01-06 04:15:00,32.7,24.0,28.94,East,83,0.0,0.0,70,0.00,,OVC015,0.00,VWS V14.00,2013-01-06 09:15:00,
2013-01-06 04:16:00,32.7,24.0,28.94,East,101,0.0,0.0,70,0.00,,OVC015,0.00,VWS V14.00,2013-01-06 09:16:00,
2013-01-06 04:17:00,32.7,24.0,28.94,ENE,67,3.1,3.1,70,0.00,,OVC015,0.00,VWS V14.00,2013-01-06 09:17:00,
2013-01-06 04:19:00,32.7,24.0,28.94,East,99,0.0,0.0,70,0.00,,OVC015,0.00,VWS V14.00,2013-01-06 09:19:00,
2013-01-06 04:20:00,32.7,24.0,28.94,East,95,0.0,0.0,70,0.00,,OVC015,0.00,VWS V14.00,2013-01-06 09:20:00,
2013-01-06 04:21:00,32.7,23.7,28.94,East,93,0.0,0.0,69,0.00,,OVC015,0.00,VWS V14.00,2013-01-06 09:21:00,
2013-01-06 04:22:00,32.7,23.7,28.94,ESE,116,0.0,0.0,69,0.00,,OVC015,0.00,VWS V14.00,2013-01-06 09:22:00,
2013-01-06 04:24:00,32.7,23.7,28.94,ESE,116,0.0,0.0,69,0.00,,OVC015,0.00,VWS V14.00,2013-01-06 09:24:00,
2013-01-06 04:25:00,32.7,23.7,28.94,East,94,0.0,0.0,69,0.00,,OVC015,0.00,VWS V14.00,2013-01-06 09:25:00,
2013-01-06 04:26:00,32.7,23.7,28.94,ENE,70,2.7,2.7,69,0.00,,OVC015,0.00,VWS V14.00,2013-01-06 09:26:00,
2013-01-06 04:27:00,32.7,23.7,28.94,East,95,0.0,0.0,69,0.00,,OVC015,0.00,VWS V14.00,2013-01-06 09:27:00,
2013-01-06 04:29:00,32.7,23.7,28.94,East,92,0.0,0.0,69,0.00,,OVC015,0.00,VWS V14.00,2013-01-06 09:29:00,
2013-01-06 04:30:00,32.7,23.7,28.94,ENE,61,0.0,0.0,69,0.00,,OVC015,0.00,VWS V14.00,2013-01-06 09:30:00,
2013-01-06 04:31:00,32.7,23.7,28.94,East,97,0.0,0.0,69,0.00,,OVC015,0.00,VWS V14.00,2013-01-06 09:31:00,
2013-01-06 04:32:00,32.7,23.7,28.94,South,171,2.2,2.2,69,0.00,,OVC015,0.00,VWS V14.00,2013-01-06 09:32:00,
2013-01-06 04:34:00,32.7,23.7,28.94,East,95,0.0,0.0,69,0.00,,OVC015,0.00,VWS V14.00,2013-01-06 09:34:00,
2013-01-06 04:35:00,32.7,23.7,28.94,NNE,30,2.7,2.7,69,0.00,,OVC015,0.00,VWS V14.00,2013-01-06 09:35:00,
2013-01-06 04:36:00,32.7,23.7,28.94,ENE,60,0.0,0.0,69,0.00,,OVC015,0.00,VWS V14.00,2013-01-06 09:36:00,
2013-01-06 04:37:00,32.7,23.7,28.94,ENE,73,4.0,4.0,69,0.00,,OVC015,0.00,VWS V14.00,2013-01-06 09:37:00,
2013-01-06 04:39:00,32.7,23.7,28.94,ENE,74,4.0,4.0,69,0.00,,OVC015,0.00,VWS V14.00,2013-01-06 09:39:00,
2013-01-06 04:40:00,32.7,23.3,28.94,East,91,0.0,0.0,68,0.00,,OVC015,0.00,VWS V14.00,2013-01-06 09:40:00,
2013-01-06 04:41:00,32.7,23.3,28.91,ENE,73,3.6,3.6,68,0.00,,OVC015,0.00,VWS V14.00,2013-01-06 09:41:00,
2013-01-06 04:42:00,32.7,23.3,28.91,NNE,26,0.0,0.0,68,0.00,,OVC015,0.00,VWS V14.00,2013-01-06 09:42:00,
2013-01-06 04:44:00,32.7,23.3,28.91,ENE,63,0.0,0.0,68,0.00,,OVC015,0.00,VWS V14.00,2013-01-06 09:44:00,
2013-01-06 04:45:00,32.7,23.3,28.91,ESE,116,0.0,0.0,68,0.00,,OVC015,0.00,VWS V14.00,2013-01-06 09:45:00,
2013-01-06 04:46:00,32.7,23.3,28.91,NNE,25,2.2,2.2,68,0.00,,OVC015,0.00,VWS V14.00,2013-01-06 09:46:00,
2013-01-06 04:48:00,32.7,23.3,28.91,East,84,0.0,0.0,68,0.00,,OVC015,0.00,VWS V14.00,2013-01-06 09:48:00,
2013-01-06 04:49:00,32.7,23.3,28.91,East,101,0.0,0.0,68,0.00,,OVC015,0.00,VWS V14.00,2013-01-06 09:49:00,
2013-01-06 04:50:00,32.7,23.3,28.91,East,101,0.0,0.0,68,0.00,,OVC015,0.00,VWS V14.00,2013-01-06 09:50:00,
2013-01-06 04:52:00,32.7,23.3,28.91,East,101,0.0,0.0,68,0.00,,OVC015,0.00,VWS V14.00,2013-01-06 09:52:00,
2013-01-06 04:53:00,32.7,23.3,28.91,East,101,0.0,0.0,68,0.00,,OVC015,0.00,VWS V14.00,2013-01-06 09:53:00,
2013-01-06 04:54:00,32.7,23.3,28.91,East,101,0.0,0.0,68,0.00,,OVC015,0.00,VWS V14.00,2013-01-06 09:54:00,
2013-01-06 04:55:00,32.7,23.3,28.91,SSE,156,0.0,0.0,68,0.00,,OVC015,0.00,VWS V14.00,2013-01-06 09:55:00,
2013-01-06 04:57:00,32.7,23.3,28.91,East,83,0.0,0.0,68,0.00,,OVC015,0.00,VWS V14.00,2013-01-06 09:57:00,
2013-01-06 04:58:00,32.7,23.3,28.91,ESE,116,0.0,0.0,68,0.00,,OVC015,0.00,VWS V14.00,2013-01-06 09:58:00,
2013-01-06 04:59:00,32.7,23.3,28.91,ENE,78,0.0,0.0,68,0.00,,OVC015,0.00,VWS V14.00,2013-01-06 09:59:00,
2013-01-06 05:00:00,32.7,23.0,28.91,ENE,78,0.0,0.0,67,0.00,,OVC015,0.00,VWS V14.00,2013-01-06 10:00:00,
2013-01-06 05:02:00,32.7,23.0,28.91,ESE,111,0.0,0.0,67,0.00,,OVC013,0.00,VWS V14.00,2013-01-06 10:02:00,
2013-01-06 05:03:00,32.7,23.0,28.91,ESE,111,0.0,0.0,67,0.00,,OVC013,0.00,VWS V14.00,2013-01-06 10:03:00,
2013-01-06 05:04:00,32.7,23.0,28.91,East,101,0.0,0.0,67,0.00,,OVC013,0.00,VWS V14.00,2013-01-06 10:04:00,
2013-01-06 05:06:00,32.7,23.0,28.91,East,88,0.0,0.0,67,0.00,,OVC013,0.00,VWS V14.00,2013-01-06 10:06:00,
2013-01-06 05:07:00,32.7,23.0,28.91,East,86,0.0,0.0,67,0.00,,OVC013,0.00,VWS V14.00,2013-01-06 10:07:00,
2013-01-06 05:08:00,32.7,23.0,28.91,East,88,0.0,0.0,67,0.00,,OVC013,0.00,VWS V14.00,2013-01-06 10:08:00,
2013-01-06 05:10:00,32.7,23.0,28.91,East,81,2.2,2.2,67,0.00,,OVC013,0.00,VWS V14.00,2013-01-06 10:10:00,
2013-01-06 05:11:00,32.7,23.0,28.91,East,83,0.0,0.0,67,0.00,,OVC013,0.00,VWS V14.00,2013-01-06 10:11:00,
2013-01-06 05:12:00,32.7,23.0,28.91,East,83,0.0,0.0,67,0.00,,OVC013,0.00,VWS V14.00,2013-01-06 10:12:00,
2013-01-06 05:13:00,32.7,23.0,28.91,East,83,0.0,0.0,67,0.00,,OVC013,0.00,VWS V14.00,2013-01-06 10:13:00,
2013-01-06 05:15:00,32.7,23.0,28.91,East,86,2.7,2.7,67,0.00,,OVC013,0.00,VWS V14.00,2013-01-06 10:15:00,
2013-01-06 05:16:00,32.7,23.0,28.91,ENE,69,0.0,0.0,67,0.00,,OVC013,0.00,VWS V14.00,2013-01-06 10:16:00,
2013-01-06 05:17:00,32.7,23.0,28.91,ENE,69,0.0,0.0,67,0.00,,OVC013,0.00,VWS V14.00,2013-01-06 10:17:00,
2013-01-06 05:18:00,32.7,23.0,28.91,ENE,68,0.0,0.0,67,0.00,,OVC013,0.00,VWS V14.00,2013-01-06 10:18:00,
2013-01-06 05:20:00,32.7,23.0,28.91,ENE,68,0.0,0.0,67,0.00,,OVC013,0.00,VWS V14.00,2013-01-06 10:20:00,
2013-01-06 05:21:00,32.7,23.0,28.91,ENE,68,0.0,0.0,67,0.00,,OVC013,0.00,VWS V14.00,2013-01-06 10:21:00,
2013-01-06 05:22:00,32.7,23.0,28.91,East,81,0.0,0.0,67,0.00,,OVC013,0.00,VWS V14.00,2013-01-06 10:22:00,
2013-01-06 05:23:00,32.7,23.0,28.91,East,81,0.0,0.0,67,0.00,,OVC013,0.00,VWS V14.00,2013-01-06 10:23:00,
2013-01-06 05:25:00,32.7,23.0,28.91,ENE,75,0.0,0.0,67,0.00,,OVC013,0.00,VWS V14.00,2013-01-06 10:25:00,
2013-01-06 05:26:00,32.7,23.0,28.91,ENE,75,0.0,0.0,67,0.00,,OVC013,0.00,VWS V14.00,2013-01-06 10:26:00,
2013-01-06 05:27:00,32.7,23.0,28.91,ENE,75,0.0,0.0,67,0.00,,OVC013,0.00,VWS V14.00,2013-01-06 10:27:00,
2013-01-06 05:28:00,32.7,23.0,28.91,ENE,75,0.0,0.0,67,0.00,,OVC013,0.00,VWS V14.00,2013-01-06 10:28:00,
2013-01-06 05:30:00,32.7,23.0,28.91,ENE,75,0.0,0.0,67,0.00,,OVC013,0.00,VWS V14.00,2013-01-06 10:30:00,
2013-01-06 05:31:00,32.7,23.0,28.91,ENE,75,0.0,0.0,67,0.00,,OVC013,0.00,VWS V14.00,2013-01-06 10:31:00,
2013-01-06 05:33:00,32.7,23.0,28.91,ENE,69,2.7,2.7,67,0.00,,OVC013,0.00,VWS V14.00,2013-01-06 10:33:00,
2013-01-06 05:35:00,32.7,23.0,28.91,South,169,0.0,0.0,67,0.00,,OVC013,0.00,VWS V14.00,2013-01-06 10:35:00,
2013-01-06 05:36:00,32.7,23.0,28.91,ESE,110,0.0,0.0,67,0.00,,OVC013,0.00,VWS V14.00,2013-01-06 10:36:00,
2013-01-06 05:38:00,32.7,23.0,28.91,ESE,110,0.0,0.0,67,0.00,,OVC013,0.00,VWS V14.00,2013-01-06 10:38:00,
2013-01-06 05:40:00,32.7,23.0,28.91,East,89,0.0,0.0,67,0.00,,OVC013,0.00,VWS V14.00,2013-01-06 10:40:00,
2013-01-06 05:41:00,32.7,23.0,28.91,East,86,0.0,0.0,67,0.00,,OVC013,0.00,VWS V14.00,2013-01-06 10:41:00,
2013-01-06 05:43:00,32.7,22.6,28.91,East,85,0.0,0.0,66,0.00,,OVC013,0.00,VWS V14.00,2013-01-06 10:43:00,
2013-01-06 05:45:00,32.7,22.6,28.91,East,85,0.0,0.0,66,0.00,,OVC013,0.00,VWS V14.00,2013-01-06 10:45:00,
2013-01-06 05:46:00,32.7,22.6,28.91,East,94,0.0,0.0,66,0.00,,OVC013,0.00,VWS V14.00,2013-01-06 10:46:00,
2013-01-06 05:48:00,32.7,22.6,28.91,East,93,0.0,0.0,66,0.00,,OVC013,0.00,VWS V14.00,2013-01-06 10:48:00,
2013-01-06 05:49:00,32.7,22.6,28.91,East,94,0.0,0.0,66,0.00,,OVC013,0.00,VWS V14.00,2013-01-06 10:49:00,
2013-01-06 05:50:00,32.7,22.6,28.91,East,90,0.0,0.0,66,0.00,,OVC013,0.00,VWS V14.00,2013-01-06 10:50:00,
2013-01-06 05:51:00,32.7,22.6,28.91,East,88,0.0,0.0,66,0.00,,OVC013,0.00,VWS V14.00,2013-01-06 10:51:00,
2013-01-06 05:53:00,32.7,22.6,28.91,ENE,76,4.0,4.0,66,0.00,,OVC013,0.00,VWS V14.00,2013-01-06 10:53:00,
2013-01-06 05:54:00,32.7,22.6,28.91,ENE,71,2.2,2.2,66,0.00,,OVC013,0.00,VWS V14.00,2013-01-06 10:54:00,
2013-01-06 05:55:00,32.7,22.6,28.91,East,80,0.0,0.0,66,0.00,,OVC013,0.00,VWS V14.00,2013-01-06 10:55:00,
2013-01-06 05:56:00,32.7,22.6,28.91,ENE,75,2.7,2.7,66,0.00,,OVC013,0.00,VWS V14.00,2013-01-06 10:56:00,
2013-01-06 05:58:00,32.7,22.6,28.91,ESE,117,0.0,0.0,66,0.00,,OVC017,0.00,VWS V14.00,2013-01-06 10:58:00,
2013-01-06 05:59:00,32.7,22.6,28.91,ESE,117,0.0,0.0,66,0.00,,OVC017,0.00,VWS V14.00,2013-01-06 10:59:00,
2013-01-06 06:00:00,32.7,22.6,28.91,ESE,103,3.6,3.6,66,0.00,,OVC017,0.00,VWS V14.00,2013-01-06 11:00:00,
2013-01-06 06:01:00,32.7,22.6,28.91,East,90,0.0,0.0,66,0.00,,OVC017,0.00,VWS V14.00,2013-01-06 11:01:00,
2013-01-06 06:03:00,32.7,22.6,28.91,East,94,0.0,0.0,66,0.00,,OVC017,0.00,VWS V14.00,2013-01-06 11:03:00,
2013-01-06 06:04:00,32.7,22.6,28.91,East,94,0.0,0.0,66,0.00,,OVC017,0.00,VWS V14.00,2013-01-06 11:04:00,
2013-01-06 06:05:00,32.7,22.6,28.91,ENE,75,2.7,2.7,66,0.00,,OVC017,0.00,VWS V14.00,2013-01-06 11:05:00,
2013-01-06 06:07:00,32.7,22.6,28.91,ENE,75,0.0,0.0,66,0.00,,OVC017,0.00,VWS V14.00,2013-01-06 11:07:00,
2013-01-06 06:09:00,32.7,22.6,28.91,SE,129,0.0,0.0,66,0.00,,OVC017,0.00,VWS V14.00,2013-01-06 11:09:00,
2013-01-06 06:10:00,32.7,22.6,28.91,NE,53,0.0,0.0,66,0.00,,OVC017,0.00,VWS V14.00,2013-01-06 11:10:00,
2013-01-06 06:12:00,32.7,22.6,28.91,NE,53,0.0,0.0,66,0.00,,OVC017,0.00,VWS V14.00,2013-01-06 11:12:00,
2013-01-06 06:14:00,32.7,22.6,28.91,East,99,2.2,2.2,66,0.00,,OVC017,0.00,VWS V14.00,2013-01-06 11:14:00,
2013-01-06 06:16:00,32.7,22.6,28.91,ESE,103,0.0,0.0,66,0.00,,OVC017,0.00,VWS V14.00,2013-01-06 11:16:00,
2013-01-06 06:17:00,32.7,22.6,28.91,ENE,77,3.1,3.1,66,0.00,,OVC017,0.00,VWS V14.00,2013-01-06 11:17:00,
2013-01-06 06:19:00,32.7,22.6,28.91,East,87,0.0,0.0,66,0.00,,OVC017,0.00,VWS V14.00,2013-01-06 11:19:00,
2013-01-06 06:21:00,32.7,22.6,28.91,ENE,65,0.0,0.0,66,0.00,,OVC017,0.00,VWS V14.00,2013-01-06 11:21:00,
2013-01-06 06:22:00,32.7,22.6,28.91,ENE,65,0.0,0.0,66,0.00,,OVC017,0.00,VWS V14.00,2013-01-06 11:22:00,
2013-01-06 06:24:00,32.7,22.6,28.91,ENE,73,0.0,0.0,66,0.00,,OVC017,0.00,VWS V14.00,2013-01-06 11:24:00,
2013-01-06 06:26:00,32.7,22.6,28.91,ENE,72,0.0,0.0,66,0.00,,OVC017,0.00,VWS V14.00,2013-01-06 11:26:00,
2013-01-06 06:27:00,32.7,22.6,28.91,ENE,74,2.7,2.7,66,0.00,,OVC017,0.00,VWS V14.00,2013-01-06 11:27:00,
2013-01-06 06:29:00,32.7,22.6,28.91,East,86,2.2,2.2,66,0.00,,OVC017,0.00,VWS V14.00,2013-01-06 11:29:00,
2013-01-06 06:31:00,32.7,22.6,28.91,East,88,0.0,0.0,66,0.00,,OVC017,0.00,VWS V14.00,2013-01-06 11:31:00,
2013-01-06 06:32:00,32.7,22.6,28.91,East,84,0.0,0.0,66,0.00,,OVC017,0.00,VWS V14.00,2013-01-06 11:32:00,
2013-01-06 06:34:00,32.7,22.6,28.91,East,84,0.0,0.0,66,0.00,,OVC017,0.00,VWS V14.00,2013-01-06 11:34:00,
2013-01-06 06:36:00,32.7,22.6,28.91,East,83,0.0,0.0,66,0.00,,OVC017,0.00,VWS V14.00,2013-01-06 11:36:00,
2013-01-06 06:37:00,32.7,22.6,28.91,ENE,73,0.0,0.0,66,0.00,,OVC017,0.00,VWS V14.00,2013-01-06 11:37:00,
2013-01-06 06:39:00,32.7,22.6,28.91,ENE,69,0.0,0.0,66,0.00,,OVC017,0.00,VWS V14.00,2013-01-06 11:39:00,
2013-01-06 06:41:00,32.7,22.6,28.91,East,83,0.0,0.0,66,0.00,,OVC017,0.00,VWS V14.00,2013-01-06 11:41:00,
2013-01-06 06:42:00,32.7,22.6,28.91,ENE,74,0.0,0.0,66,0.00,,OVC017,0.00,VWS V14.00,2013-01-06 11:42:00,
2013-01-06 06:44:00,32.7,22.6,28.91,East,82,0.0,0.0,66,0.00,,OVC017,0.00,VWS V14.00,2013-01-06 11:44:00,
2013-01-06 06:46:00,32.7,22.6,28.91,East,82,0.0,0.0,66,0.00,,OVC017,0.00,VWS V14.00,2013-01-06 11:46:00,
2013-01-06 06:47:00,32.7,22.6,28.91,ESE,113,0.0,0.0,66,0.00,,OVC017,0.00,VWS V14.00,2013-01-06 11:47:00,
2013-01-06 06:49:00,32.7,22.6,28.91,ESE,119,0.0,0.0,66,0.00,,OVC017,0.00,VWS V14.00,2013-01-06 11:49:00,
2013-01-06 06:50:00,32.7,22.6,28.91,ESE,118,0.0,0.0,66,0.00,,OVC017,0.00,VWS V14.00,2013-01-06 11:50:00,
2013-01-06 06:51:00,32.7,22.6,28.91,ENE,62,0.0,0.0,66,0.00,,OVC017,0.00,VWS V14.00,2013-01-06 11:51:00,
2013-01-06 06:53:00,32.7,22.6,28.91,ENE,72,0.0,0.0,66,0.00,,OVC017,0.00,VWS V14.00,2013-01-06 11:53:00,
2013-01-06 06:54:00,32.7,22.6,28.91,NE,50,0.0,0.0,66,0.00,,OVC017,0.00,VWS V14.00,2013-01-06 11:54:00,
2013-01-06 06:55:00,32.7,22.6,28.91,NE,50,0.0,0.0,66,0.00,,OVC017,0.00,VWS V14.00,2013-01-06 11:55:00,
2013-01-06 06:56:00,32.7,22.6,28.91,ESE,112,0.0,0.0,66,0.00,,OVC017,0.00,VWS V14.00,2013-01-06 11:56:00,
2013-01-06 06:58:00,32.7,22.6,28.91,South,170,0.0,0.0,66,0.00,,OVC017,0.00,VWS V14.00,2013-01-06 11:58:00,
2013-01-06 06:59:00,32.7,22.6,28.91,ENE,76,3.1,3.1,66,0.00,,OVC017,0.00,VWS V14.00,2013-01-06 11:59:00,
2013-01-06 07:00:00,32.7,22.6,28.91,East,90,0.0,0.0,66,0.00,,OVC017,0.00,VWS V14.00,2013-01-06 12:00:00,
2013-01-06 07:01:00,32.7,22.6,28.91,ENE,78,3.1,3.1,66,0.00,,OVC017,0.00,VWS V14.00,2013-01-06 12:01:00,
2013-01-06 07:03:00,32.7,22.6,28.91,ENE,63,0.0,0.0,66,0.00,,,0.00,VWS V14.00,2013-01-06 12:03:00,
2013-01-06 07:04:00,32.7,22.6,28.91,ENE,61,2.2,2.2,66,0.00,,,0.00,VWS V14.00,2013-01-06 12:04:00,
2013-01-06 07:05:00,32.7,22.6,28.91,East,93,0.0,0.0,66,0.00,,,0.00,VWS V14.00,2013-01-06 12:05:00,
2013-01-06 07:06:00,32.7,22.6,28.91,East,87,0.0,0.0,66,0.00,,,0.00,VWS V14.00,2013-01-06 12:06:00,
2013-01-06 07:08:00,32.7,22.6,28.91,NE,36,0.0,0.0,66,0.00,,,0.00,VWS V14.00,2013-01-06 12:08:00,
2013-01-06 07:09:00,32.7,22.6,28.91,NE,36,0.0,0.0,66,0.00,,,0.00,VWS V14.00,2013-01-06 12:09:00,
2013-01-06 07:10:00,32.7,22.6,28.91,NE,36,0.0,0.0,66,0.00,,,0.00,VWS V14.00,2013-01-06 12:10:00,
2013-01-06 07:12:00,32.7,22.6,28.88,East,89,0.0,0.0,66,0.00,,,0.00,VWS V14.00,2013-01-06 12:12:00,
2013-01-06 07:13:00,32.7,22.6,28.88,ESE,107,0.0,0.0,66,0.00,,,0.00,VWS V14.00,2013-01-06 12:13:00,
2013-01-06 07:14:00,32.7,22.6,28.88,East,97,0.0,0.0,66,0.00,,,0.00,VWS V14.00,2013-01-06 12:14:00,
2013-01-06 07:15:00,32.7,22.6,28.88,East,97,0.0,0.0,66,0.00,,,0.00,VWS V14.00,2013-01-06 12:15:00,
2013-01-06 07:17:00,32.7,22.6,28.88,ESE,107,2.2,2.2,66,0.00,,,0.00,VWS V14.00,2013-01-06 12:17:00,
2013-01-06 07:18:00,32.7,22.6,28.88,East,86,5.4,5.4,66,0.00,,,0.00,VWS V14.00,2013-01-06 12:18:00,
2013-01-06 07:19:00,32.7,22.6,28.88,NE,40,0.0,0.0,66,0.00,,,0.00,VWS V14.00,2013-01-06 12:19:00,
2013-01-06 07:20:00,32.7,22.6,28.88,ENE,73,4.5,4.5,66,0.00,,,0.00,VWS V14.00,2013-01-06 12:20:00,
2013-01-06 07:22:00,32.9,22.8,28.88,ESE,114,0.0,0.0,66,0.00,,,0.00,VWS V14.00,2013-01-06 12:22:00,
2013-01-06 07:23:00,32.9,22.8,28.88,ESE,114,0.0,0.0,66,0.00,,,0.00,VWS V14.00,2013-01-06 12:23:00,
2013-01-06 07:24:00,32.9,22.8,28.88,East,82,0.0,0.0,66,0.00,,,0.00,VWS V14.00,2013-01-06 12:24:00,
2013-01-06 07:25:00,32.9,22.8,28.88,ENE,78,0.0,0.0,66,0.00,,,0.00,VWS V14.00,2013-01-06 12:25:00,
2013-01-06 07:27:00,32.9,22.8,28.88,SSW,201,0.0,0.0,66,0.00,,,0.00,VWS V14.00,2013-01-06 12:27:00,
2013-01-06 07:28:00,32.9,22.8,28.88,ENE,77,2.7,2.7,66,0.00,,,0.00,VWS V14.00,2013-01-06 12:28:00,
2013-01-06 07:29:00,32.9,22.8,28.88,WSW,237,0.0,0.0,66,0.00,,,0.00,VWS V14.00,2013-01-06 12:29:00,
2013-01-06 07:30:00,32.9,22.8,28.88,SW,232,0.0,0.0,66,0.00,,,0.00,VWS V14.00,2013-01-06 12:30:00,
2013-01-06 07:32:00,32.9,22.8,28.88,SSW,213,0.0,0.0,66,0.00,,,0.00,VWS V14.00,2013-01-06 12:32:00,
2013-01-06 07:33:00,32.9,22.8,28.88,ESE,102,0.0,0.0,66,0.00,,,0.00,VWS V14.00,2013-01-06 12:33:00,
2013-01-06 07:34:00,32.9,22.8,28.88,East,101,0.0,0.0,66,0.00,,,0.00,VWS V14.00,2013-01-06 12:34:00,
2013-01-06 07:35:00,32.9,22.8,28.88,East,91,2.7,2.7,66,0.00,,,0.00,VWS V14.00,2013-01-06 12:35:00,
2013-01-06 07:37:00,32.9,22.8,28.88,East,91,0.0,0.0,66,0.00,,,0.00,VWS V14.00,2013-01-06 12:37:00,
2013-01-06 07:38:00,32.9,23.2,28.88,East,91,0.0,0.0,67,0.00,,,0.00,VWS V14.00,2013-01-06 12:38:00,
2013-01-06 07:40:00,32.9,23.2,28.88,ESE,104,0.0,0.0,67,0.00,,,0.00,VWS V14.00,2013-01-06 12:40:00,
2013-01-06 07:42:00,32.9,23.2,28.88,ENE,73,0.0,0.0,67,0.00,,,0.00,VWS V14.00,2013-01-06 12:42:00,
2013-01-06 07:44:00,32.9,23.2,28.88,East,96,3.6,3.6,67,0.00,,,0.00,VWS V14.00,2013-01-06 12:44:00,
2013-01-06 07:45:00,32.9,23.2,28.88,East,90,0.0,0.0,67,0.00,,,0.00,VWS V14.00,2013-01-06 12:45:00,
2013-01-06 07:47:00,32.9,23.2,28.88,SE,130,0.0,0.0,67,0.00,,,0.00,VWS V14.00,2013-01-06 12:47:00,
2013-01-06 07:49:00,32.9,23.2,28.88,ENE,69,0.0,0.0,67,0.00,,,0.00,VWS V14.00,2013-01-06 12:49:00,
2013-01-06 07:50:00,32.9,23.2,28.88,ENE,77,0.0,0.0,67,0.00,,,0.00,VWS V14.00,2013-01-06 12:50:00,
2013-01-06 07:52:00,32.9,23.2,28.88,ENE,75,0.0,0.0,67,0.00,,,0.00,VWS V14.00,2013-01-06 12:52:00,
2013-01-06 07:54:00,32.9,23.2,28.88,ENE,75,0.0,0.0,67,0.00,,,0.00,VWS V14.00,2013-01-06 12:54:00,
2013-01-06 07:55:00,32.7,23.0,28.88,ENE,75,0.0,0.0,67,0.00,,,0.00,VWS V14.00,2013-01-06 12:55:00,
2013-01-06 07:57:00,32.7,23.0,28.88,ENE,75,0.0,0.0,67,0.00,,,0.00,VWS V14.00,2013-01-06 12:57:00,
2013-01-06 07:59:00,32.7,23.0,28.88,ENE,73,0.0,0.0,67,0.00,,OVC011,0.00,VWS V14.00,2013-01-06 12:59:00,
2013-01-06 08:00:00,32.7,23.0,28.88,ENE,77,0.0,0.0,67,0.00,,OVC011,0.00,VWS V14.00,2013-01-06 13:00:00,
2013-01-06 08:01:00,32.7,23.0,28.88,ENE,77,0.0,0.0,67,0.00,,OVC011,0.00,VWS V14.00,2013-01-06 13:01:00,
2013-01-06 08:02:00,32.7,23.0,28.88,East,91,2.2,2.2,67,0.00,,OVC011,0.00,VWS V14.00,2013-01-06 13:02:00,
2013-01-06 08:04:00,32.7,23.0,28.88,NE,45,0.0,0.0,67,0.00,,OVC011,0.00,VWS V14.00,2013-01-06 13:04:00,
2013-01-06 08:05:00,32.7,23.0,28.88,East,82,0.0,0.0,67,0.00,,OVC011,0.00,VWS V14.00,2013-01-06 13:05:00,
2013-01-06 08:06:00,32.7,23.0,28.88,East,82,0.0,0.0,67,0.00,,OVC011,0.00,VWS V14.00,2013-01-06 13:06:00,
2013-01-06 08:07:00,32.7,23.0,28.88,East,82,0.0,0.0,67,0.00,,OVC011,0.00,VWS V14.00,2013-01-06 13:07:00,
2013-01-06 08:09:00,32.7,23.0,28.88,East,82,0.0,0.0,67,0.00,,OVC011,0.00,VWS V14.00,2013-01-06 13:09:00,
2013-01-06 08:10:00,32.7,23.0,28.88,East,82,0.0,0.0,67,0.00,,OVC011,0.00,VWS V14.00,2013-01-06 13:10:00,
2013-01-06 08:11:00,32.7,23.0,28.88,East,82,0.0,0.0,67,0.00,,OVC011,0.00,VWS V14.00,2013-01-06 13:11:00,
2013-01-06 08:12:00,32.7,23.0,28.88,NE,34,0.0,0.0,67,0.00,,OVC011,0.00,VWS V14.00,2013-01-06 13:12:00,
2013-01-06 08:14:00,32.7,23.0,28.88,East,85,0.0,0.0,67,0.00,,OVC011,0.00,VWS V14.00,2013-01-06 13:14:00,
2013-01-06 08:16:00,32.7,23.0,28.88,ENE,78,0.0,0.0,67,0.00,,OVC011,0.00,VWS V14.00,2013-01-06 13:16:00,
2013-01-06 08:17:00,32.7,23.0,28.88,ENE,69,0.0,0.0,67,0.00,,OVC011,0.00,VWS V14.00,2013-01-06 13:17:00,
2013-01-06 08:19:00,32.7,23.0,28.88,East,81,0.0,0.0,67,0.00,,OVC011,0.00,VWS V14.00,2013-01-06 13:19:00,
2013-01-06 08:21:00,32.7,23.0,28.88,East,83,0.0,0.0,67,0.00,,OVC011,0.00,VWS V14.00,2013-01-06 13:21:00,
2013-01-06 08:22:00,32.7,23.0,28.88,WSW,257,0.0,0.0,67,0.00,,OVC011,0.00,VWS V14.00,2013-01-06 13:22:00,
2013-01-06 08:24:00,32.9,23.2,28.88,ESE,106,0.0,0.0,67,0.00,,OVC011,0.00,VWS V14.00,2013-01-06 13:24:00,
2013-01-06 08:26:00,32.9,23.2,28.91,SSE,160,0.0,0.0,67,0.00,,OVC011,0.00,VWS V14.00,2013-01-06 13:26:00,
2013-01-06 08:27:00,32.9,23.2,28.91,SSW,193,0.0,0.0,67,0.00,,OVC011,0.00,VWS V14.00,2013-01-06 13:27:00,
2013-01-06 08:30:00,32.9,23.2,28.91,SE,136,0.0,0.0,67,0.00,,OVC011,0.00,VWS V14.00,2013-01-06 13:30:00,
2013-01-06 08:31:00,32.9,23.2,28.91,ESE,117,0.0,0.0,67,0.00,,OVC011,0.00,VWS V14.00,2013-01-06 13:31:00,
2013-01-06 08:32:00,32.9,23.2,28.91,East,91,0.0,0.0,67,0.00,,OVC011,0.00,VWS V14.00,2013-01-06 13:32:00,
2013-01-06 08:35:00,32.9,23.5,28.91,East,91,0.0,0.0,68,0.00,,OVC011,0.00,VWS V14.00,2013-01-06 13:35:00,
2013-01-06 08:36:00,32.9,23.5,28.91,East,91,0.0,0.0,68,0.00,,OVC011,0.00,VWS V14.00,2013-01-06 13:36:00,
2013-01-06 08:37:00,32.9,23.5,28.91,West,268,0.0,0.0,68,0.00,,OVC011,0.00,VWS V14.00,2013-01-06 13:37:00,
2013-01-06 08:40:00,32.9,23.5,28.91,West,268,0.0,0.0,68,0.00,,OVC011,0.00,VWS V14.00,2013-01-06 13:40:00,
2013-01-06 08:41:00,32.9,23.5,28.91,North,2,2.7,2.7,68,0.00,,OVC011,0.00,VWS V14.00,2013-01-06 13:41:00,
2013-01-06 08:43:00,32.9,23.5,28.91,SSE,158,0.0,0.0,68,0.00,,OVC011,0.00,VWS V14.00,2013-01-06 13:43:00,
2013-01-06 08:45:00,32.9,23.5,28.91,East,89,0.0,0.0,68,0.00,,OVC011,0.00,VWS V14.00,2013-01-06 13:45:00,
2013-01-06 08:46:00,32.9,23.5,28.91,East,89,0.0,0.0,68,0.00,,OVC011,0.00,VWS V14.00,2013-01-06 13:46:00,
2013-01-06 08:48:00,33.1,23.7,28.91,East,89,0.0,0.0,68,0.00,,OVC011,0.00,VWS V14.00,2013-01-06 13:48:00,
2013-01-06 08:50:00,33.1,23.7,28.91,East,82,0.0,0.0,68,0.00,,OVC011,0.00,VWS V14.00,2013-01-06 13:50:00,
2013-01-06 08:51:00,33.1,23.7,28.91,NE,54,0.0,0.0,68,0.00,,OVC011,0.00,VWS V14.00,2013-01-06 13:51:00,
2013-01-06 08:53:00,33.1,23.7,28.91,East,87,0.0,0.0,68,0.00,,OVC011,0.00,VWS V14.00,2013-01-06 13:53:00,
2013-01-06 08:55:00,33.1,23.7,28.91,East,87,0.0,0.0,68,0.00,,OVC011,0.00,VWS V14.00,2013-01-06 13:55:00,
2013-01-06 08:56:00,33.1,23.7,28.91,ENE,73,0.0,0.0,68,0.00,,OVC011,0.00,VWS V14.00,2013-01-06 13:56:00,
2013-01-06 08:58:00,33.1,23.7,28.91,ENE,73,0.0,0.0,68,0.00,,,0.00,VWS V14.00,2013-01-06 13:58:00,
2013-01-06 09:00:00,33.1,23.7,28.91,ENE,73,0.0,0.0,68,0.00,,,0.00,VWS V14.00,2013-01-06 14:00:00,
2013-01-06 09:01:00,33.1,23.7,28.91,East,92,0.0,0.0,68,0.00,,,0.00,VWS V14.00,2013-01-06 14:01:00,
2013-01-06 09:03:00,33.1,23.7,28.91,ESE,116,0.0,0.0,68,0.00,,,0.00,VWS V14.00,2013-01-06 14:03:00,
2013-01-06 09:05:00,33.1,23.7,28.91,ENE,78,0.0,0.0,68,0.00,,,0.00,VWS V14.00,2013-01-06 14:05:00,
2013-01-06 09:06:00,33.1,23.7,28.91,East,88,0.0,0.0,68,0.00,,,0.00,VWS V14.00,2013-01-06 14:06:00,
2013-01-06 09:08:00,33.1,23.7,28.91,East,89,0.0,0.0,68,0.00,,,0.00,VWS V14.00,2013-01-06 14:08:00,
2013-01-06 09:10:00,33.1,23.7,28.91,ESE,105,0.0,0.0,68,0.00,,,0.00,VWS V14.00,2013-01-06 14:10:00,
2013-01-06 09:11:00,33.1,23.7,28.91,East,96,0.0,0.0,68,0.00,,,0.00,VWS V14.00,2013-01-06 14:11:00,
2013-01-06 09:13:00,33.3,23.9,28.91,East,96,0.0,0.0,68,0.00,,,0.00,VWS V14.00,2013-01-06 14:13:00,
2013-01-06 09:15:00,33.3,23.9,28.91,East,97,0.0,0.0,68,0.00,,,0.00,VWS V14.00,2013-01-06 14:15:00,
2013-01-06 09:16:00,33.3,23.9,28.91,East,89,0.0,0.0,68,0.00,,,0.00,VWS V14.00,2013-01-06 14:16:00,
2013-01-06 09:17:00,33.3,23.9,28.91,East,89,0.0,0.0,68,0.00,,,0.00,VWS V14.00,2013-01-06 14:17:00,
2013-01-06 09:18:00,33.3,23.9,28.91,East,91,4.0,4.0,68,0.00,,,0.00,VWS V14.00,2013-01-06 14:18:00,
2013-01-06 09:20:00,33.3,23.9,28.91,SE,141,0.0,0.0,68,0.00,,,0.00,VWS V14.00,2013-01-06 14:20:00,
2013-01-06 09:22:00,33.3,23.9,28.91,ENE,78,3.6,3.6,68,0.00,,,0.00,VWS V14.00,2013-01-06 14:22:00,
2013-01-06 09:24:00,33.3,23.9,28.91,East,91,0.0,0.0,68,0.00,,,0.00,VWS V14.00,2013-01-06 14:24:00,
2013-01-06 09:25:00,33.3,23.9,28.91,SSW,205,0.0,0.0,68,0.00,,,0.00,VWS V14.00,2013-01-06 14:25:00,
2013-01-06 09:27:00,33.3,23.9,28.91,East,79,0.0,0.0,68,0.00,,,0.00,VWS V14.00,2013-01-06 14:27:00,
2013-01-06 09:29:00,33.3,23.9,28.91,East,89,0.0,0.0,68,0.00,,,0.00,VWS V14.00,2013-01-06 14:29:00,
2013-01-06 09:30:00,33.3,23.9,28.91,East,89,0.0,0.0,68,0.00,,,0.00,VWS V14.00,2013-01-06 14:30:00,
2013-01-06 09:32:00,33.3,23.9,28.91,ESE,110,0.0,0.0,68,0.00,,,0.00,VWS V14.00,2013-01-06 14:32:00,
2013-01-06 09:34:00,33.3,23.9,28.91,East,90,0.0,0.0,68,0.00,,,0.00,VWS V14.00,2013-01-06 14:34:00,
2013-01-06 09:35:00,33.3,23.9,28.91,East,90,0.0,0.0,68,0.00,,,0.00,VWS V14.00,2013-01-06 14:35:00,
2013-01-06 09:37:00,33.3,23.9,28.91,WSW,258,0.0,0.0,68,0.00,,,0.00,VWS V14.00,2013-01-06 14:37:00,
2013-01-06 09:39:00,33.3,23.9,28.91,South,174,0.0,0.0,68,0.00,,,0.00,VWS V14.00,2013-01-06 14:39:00,
2013-01-06 09:40:00,33.3,23.9,28.91,East,94,0.0,0.0,68,0.00,,,0.00,VWS V14.00,2013-01-06 14:40:00,
2013-01-06 09:42:00,33.3,23.9,28.91,ENE,76,2.2,2.2,68,0.00,,,0.00,VWS V14.00,2013-01-06 14:42:00,
2013-01-06 09:44:00,33.3,23.9,28.91,SW,231,0.0,0.0,68,0.00,,,0.00,VWS V14.00,2013-01-06 14:44:00,
2013-01-06 09:45:00,33.3,23.9,28.91,ESE,102,0.0,0.0,68,0.00,,,0.00,VWS V14.00,2013-01-06 14:45:00,
2013-01-06 09:47:00,33.3,23.9,28.91,NNE,18,0.0,0.0,68,0.00,,,0.00,VWS V14.00,2013-01-06 14:47:00,
2013-01-06 09:49:00,33.3,23.9,28.91,ENE,73,0.0,0.0,68,0.00,,,0.00,VWS V14.00,2013-01-06 14:49:00,
2013-01-06 09:50:00,33.3,23.9,28.91,East,91,0.0,0.0,68,0.00,,,0.00,VWS V14.00,2013-01-06 14:50:00,
2013-01-06 09:52:00,33.3,23.9,28.91,South,176,2.7,2.7,68,0.00,,,0.00,VWS V14.00,2013-01-06 14:52:00,
2013-01-06 09:54:00,33.3,23.9,28.91,SE,144,0.0,0.0,68,0.00,,,0.00,VWS V14.00,2013-01-06 14:54:00,
2013-01-06 09:55:00,33.3,23.9,28.91,SE,144,0.0,0.0,68,0.00,,,0.00,VWS V14.00,2013-01-06 14:55:00,
2013-01-06 09:57:00,33.3,23.9,28.91,SE,139,0.0,0.0,68,0.00,,,0.00,VWS V14.00,2013-01-06 14:57:00,
2013-01-06 09:59:00,33.3,23.9,28.91,East,81,0.0,0.0,68,0.00,,,0.00,VWS V14.00,2013-01-06 14:59:00,
2013-01-06 10:01:00,33.3,23.5,28.91,ENE,59,2.7,2.7,67,0.00,,,0.00,VWS V14.00,2013-01-06 15:01:00,
2013-01-06 10:02:00,33.3,23.5,28.91,NE,51,0.0,0.0,67,0.00,,,0.00,VWS V14.00,2013-01-06 15:02:00,
2013-01-06 10:03:00,33.3,23.5,28.91,ENE,78,0.0,0.0,67,0.00,,,0.00,VWS V14.00,2013-01-06 15:03:00,
2013-01-06 10:04:00,33.3,23.5,28.91,East,81,2.2,2.2,67,0.00,,,0.00,VWS V14.00,2013-01-06 15:04:00,
2013-01-06 10:06:00,33.3,23.5,28.91,SE,141,0.0,0.0,67,0.00,,,0.00,VWS V14.00,2013-01-06 15:06:00,
2013-01-06 10:07:00,33.3,23.5,28.91,ENE,78,3.1,3.1,67,0.00,,,0.00,VWS V14.00,2013-01-06 15:07:00,
2013-01-06 10:08:00,33.3,23.5,28.91,ENE,78,0.0,0.0,67,0.00,,,0.00,VWS V14.00,2013-01-06 15:08:00,
2013-01-06 10:09:00,33.3,23.5,28.91,ENE,78,0.0,0.0,67,0.00,,,0.00,VWS V14.00,2013-01-06 15:09:00,
2013-01-06 10:11:00,33.3,23.5,28.91,West,277,3.1,3.1,67,0.00,,,0.00,VWS V14.00,2013-01-06 15:11:00,
2013-01-06 10:13:00,33.3,23.5,28.91,East,79,2.2,2.2,67,0.00,,,0.00,VWS V14.00,2013-01-06 15:13:00,
2013-01-06 10:14:00,33.3,23.5,28.91,ENE,69,3.6,3.6,67,0.00,,,0.00,VWS V14.00,2013-01-06 15:14:00,
2013-01-06 10:16:00,33.3,23.5,28.91,SE,134,2.2,2.2,67,0.00,,,0.00,VWS V14.00,2013-01-06 15:16:00,
2013-01-06 10:18:00,33.4,23.7,28.91,SE,128,2.7,2.7,67,0.00,,,0.00,VWS V14.00,2013-01-06 15:18:00,
2013-01-06 10:20:00,33.4,23.7,28.91,East,92,0.0,0.0,67,0.00,,,0.00,VWS V14.00,2013-01-06 15:20:00,
2013-01-06 10:21:00,33.4,23.7,28.91,ESE,107,0.0,0.0,67,0.00,,,0.00,VWS V14.00,2013-01-06 15:21:00,
2013-01-06 10:23:00,33.4,23.7,28.91,WNW,287,0.0,0.0,67,0.00,,,0.00,VWS V14.00,2013-01-06 15:23:00,
2013-01-06 10:25:00,33.4,23.7,28.91,SE,134,2.2,2.2,67,0.00,,,0.00,VWS V14.00,2013-01-06 15:25:00,
2013-01-06 10:26:00,33.4,23.7,28.91,ENE,68,0.0,0.0,67,0.00,,,0.00,VWS V14.00,2013-01-06 15:26:00,
2013-01-06 10:28:00,33.6,23.9,28.91,East,88,0.0,0.0,67,0.00,,,0.00,VWS V14.00,2013-01-06 15:28:00,
2013-01-06 10:30:00,33.6,23.9,28.91,East,88,0.0,0.0,67,0.00,,,0.00,VWS V14.00,2013-01-06 15:30:00,
2013-01-06 10:32:00,33.6,23.9,28.91,East,91,0.0,0.0,67,0.00,,,0.00,VWS V14.00,2013-01-06 15:32:00,
2013-01-06 10:33:00,33.6,23.9,28.91,East,96,0.0,0.0,67,0.00,,,0.00,VWS V14.00,2013-01-06 15:33:00,
2013-01-06 10:35:00,33.6,23.9,28.91,East,99,0.0,0.0,67,0.00,,,0.00,VWS V14.00,2013-01-06 15:35:00,
2013-01-06 10:37:00,33.6,23.9,28.91,ENE,60,0.0,0.0,67,0.00,,,0.00,VWS V14.00,2013-01-06 15:37:00,
2013-01-06 10:38:00,33.6,23.9,28.91,NE,49,0.0,0.0,67,0.00,,,0.00,VWS V14.00,2013-01-06 15:38:00,
2013-01-06 10:40:00,33.6,23.9,28.91,East,83,0.0,0.0,67,0.00,,,0.00,VWS V14.00,2013-01-06 15:40:00,
2013-01-06 10:42:00,33.8,23.7,28.91,East,89,0.0,0.0,66,0.00,,,0.00,VWS V14.00,2013-01-06 15:42:00,
2013-01-06 10:43:00,33.8,23.7,28.91,East,89,0.0,0.0,66,0.00,,,0.00,VWS V14.00,2013-01-06 15:43:00,
2013-01-06 10:45:00,33.8,23.7,28.91,NE,45,0.0,0.0,66,0.00,,,0.00,VWS V14.00,2013-01-06 15:45:00,
2013-01-06 10:47:00,33.8,23.7,28.91,North,5,2.7,2.7,66,0.00,,,0.00,VWS V14.00,2013-01-06 15:47:00,
2013-01-06 10:48:00,33.8,23.7,28.91,NW,311,0.0,0.0,66,0.00,,,0.00,VWS V14.00,2013-01-06 15:48:00,
2013-01-06 10:50:00,34.0,23.8,28.91,South,186,0.0,0.0,66,0.00,,,0.00,VWS V14.00,2013-01-06 15:50:00,
2013-01-06 10:52:00,34.0,23.8,28.91,East,80,0.0,0.0,66,0.00,,,0.00,VWS V14.00,2013-01-06 15:52:00,
2013-01-06 10:53:00,34.0,23.8,28.91,East,82,0.0,0.0,66,0.00,,,0.00,VWS V14.00,2013-01-06 15:53:00,
2013-01-06 10:55:00,34.0,23.8,28.91,ENE,76,0.0,0.0,66,0.00,,,0.00,VWS V14.00,2013-01-06 15:55:00,
2013-01-06 10:57:00,34.0,23.5,28.91,ENE,76,2.7,2.7,65,0.00,,,0.00,VWS V14.00,2013-01-06 15:57:00,
2013-01-06 10:58:00,34.0,23.5,28.91,ENE,77,0.0,0.0,65,0.00,,,0.00,VWS V14.00,2013-01-06 15:58:00,
2013-01-06 10:59:00,34.0,23.5,28.91,ENE,76,0.0,0.0,65,0.00,,,0.00,VWS V14.00,2013-01-06 15:59:00,
2013-01-06 11:00:00,34.0,23.5,28.91,East,79,0.0,0.0,65,0.00,,,0.00,VWS V14.00,2013-01-06 16:00:00,
2013-01-06 11:02:00,34.2,23.6,28.91,East,81,3.6,3.6,65,0.00,,,0.00,VWS V14.00,2013-01-06 16:02:00,
2013-01-06 11:03:00,34.2,23.6,28.91,ENE,65,3.6,3.6,65,0.00,,,0.00,VWS V14.00,2013-01-06 16:03:00,
2013-01-06 11:04:00,34.2,23.6,28.91,ENE,58,0.0,0.0,65,0.00,,,0.00,VWS V14.00,2013-01-06 16:04:00,
2013-01-06 11:05:00,34.0,23.5,28.91,ENE,70,3.6,3.6,65,0.00,,,0.00,VWS V14.00,2013-01-06 16:05:00,
2013-01-06 11:07:00,34.0,23.5,28.91,East,82,0.0,0.0,65,0.00,,,0.00,VWS V14.00,2013-01-06 16:07:00,
2013-01-06 11:08:00,34.0,23.5,28.91,SSW,195,0.0,0.0,65,0.00,,,0.00,VWS V14.00,2013-01-06 16:08:00,
2013-01-06 11:09:00,34.0,23.5,28.91,SSW,194,0.0,0.0,65,0.00,,,0.00,VWS V14.00,2013-01-06 16:09:00,
2013-01-06 11:10:00,34.0,23.5,28.91,South,179,2.2,2.2,65,0.00,,,0.00,VWS V14.00,2013-01-06 16:10:00,
2013-01-06 11:12:00,34.2,23.3,28.91,ENE,72,0.0,0.0,64,0.00,,,0.00,VWS V14.00,2013-01-06 16:12:00,
2013-01-06 11:13:00,34.2,23.3,28.91,ENE,72,0.0,0.0,64,0.00,,,0.00,VWS V14.00,2013-01-06 16:13:00,
2013-01-06 11:14:00,34.2,23.3,28.91,ENE,76,0.0,0.0,64,0.00,,,0.00,VWS V14.00,2013-01-06 16:14:00,
2013-01-06 11:15:00,34.2,23.3,28.91,ESE,106,2.7,2.7,64,0.00,,,0.00,VWS V14.00,2013-01-06 16:15:00,
2013-01-06 11:18:00,34.2,23.3,28.91,NW,324,0.0,0.0,64,0.00,,,0.00,VWS V14.00,2013-01-06 16:18:00,
2013-01-06 11:19:00,34.2,23.3,28.91,East,90,2.2,2.2,64,0.00,,,0.00,VWS V14.00,2013-01-06 16:19:00,
2013-01-06 11:20:00,34.2,23.3,28.91,ENE,64,0.0,0.0,64,0.00,,,0.00,VWS V14.00,2013-01-06 16:20:00,
2013-01-06 11:23:00,34.2,23.3,28.91,North,11,2.7,2.7,64,0.00,,,0.00,VWS V14.00,2013-01-06 16:23:00,
2013-01-06 11:24:00,34.2,23.3,28.91,ENE,73,3.1,3.1,64,0.00,,,0.00,VWS V14.00,2013-01-06 16:24:00,
2013-01-06 11:25:00,34.2,23.3,28.91,East,93,2.2,2.2,64,0.00,,,0.00,VWS V14.00,2013-01-06 16:25:00,
2013-01-06 11:28:00,34.2,22.9,28.91,SE,138,0.0,0.0,63,0.00,,,0.00,VWS V14.00,2013-01-06 16:28:00,
2013-01-06 11:29:00,34.2,22.9,28.91,East,85,0.0,0.0,63,0.00,,,0.00,VWS V14.00,2013-01-06 16:29:00,
2013-01-06 11:31:00,34.3,23.1,28.91,WNW,297,0.0,0.0,63,0.00,,,0.00,VWS V14.00,2013-01-06 16:31:00,
2013-01-06 11:33:00,34.3,23.1,28.91,ESE,114,2.2,2.2,63,0.00,,,0.00,VWS V14.00,2013-01-06 16:33:00,
2013-01-06 11:34:00,34.3,23.1,28.91,ENE,74,0.0,0.0,63,0.00,,,0.00,VWS V14.00,2013-01-06 16:34:00,
2013-01-06 11:36:00,34.3,23.1,28.91,ENE,76,3.1,3.1,63,0.00,,,0.00,VWS V14.00,2013-01-06 16:36:00,
2013-01-06 11:38:00,34.3,23.1,28.91,ESE,117,2.2,2.2,63,0.00,,,0.00,VWS V14.00,2013-01-06 16:38:00,
2013-01-06 11:39:00,34.3,23.1,28.91,East,98,0.0,0.0,63,0.00,,,0.00,VWS V14.00,2013-01-06 16:39:00,
2013-01-06 11:41:00,34.3,22.7,28.91,East,79,0.0,0.0,62,0.00,,,0.00,VWS V14.00,2013-01-06 16:41:00,
2013-01-06 11:43:00,34.5,22.9,28.91,East,85,2.7,2.7,62,0.00,,,0.00,VWS V14.00,2013-01-06 16:43:00,
2013-01-06 11:44:00,34.5,22.9,28.91,ENE,58,0.0,0.0,62,0.00,,,0.00,VWS V14.00,2013-01-06 16:44:00,
2013-01-06 11:45:00,34.5,22.9,28.91,ENE,58,0.0,0.0,62,0.00,,,0.00,VWS V14.00,2013-01-06 16:45:00,
2013-01-06 11:46:00,34.5,22.9,28.91,ENE,78,0.0,0.0,62,0.00,,,0.00,VWS V14.00,2013-01-06 16:46:00,
2013-01-06 11:48:00,34.5,22.9,28.91,East,90,0.0,0.0,62,0.00,,,0.00,VWS V14.00,2013-01-06 16:48:00,
2013-01-06 11:49:00,34.5,22.9,28.91,East,90,0.0,0.0,62,0.00,,,0.00,VWS V14.00,2013-01-06 16:49:00,
2013-01-06 11:50:00,34.7,23.0,28.91,East,80,2.7,2.7,62,0.00,,,0.00,VWS V14.00,2013-01-06 16:50:00,
2013-01-06 11:51:00,34.7,23.0,28.91,East,95,0.0,0.0,62,0.00,,,0.00,VWS V14.00,2013-01-06 16:51:00,
2013-01-06 11:53:00,34.7,23.0,28.91,East,89,3.1,3.1,62,0.00,,,0.00,VWS V14.00,2013-01-06 16:53:00,
2013-01-06 11:54:00,34.7,23.0,28.91,East,80,2.2,2.2,62,0.00,,,0.00,VWS V14.00,2013-01-06 16:54:00,
2013-01-06 11:55:00,34.7,23.0,28.91,ENE,75,0.0,0.0,62,0.00,,,0.00,VWS V14.00,2013-01-06 16:55:00,
2013-01-06 11:56:00,34.7,22.6,28.91,ESE,113,4.9,4.9,61,0.00,,,0.00,VWS V14.00,2013-01-06 16:56:00,
2013-01-06 11:58:00,34.7,22.6,28.91,East,87,0.0,0.0,61,0.00,,,0.00,VWS V14.00,2013-01-06 16:58:00,
2013-01-06 11:59:00,34.7,22.6,28.91,East,82,0.0,0.0,61,0.00,,,0.00,VWS V14.00,2013-01-06 16:59:00,
2013-01-06 12:00:00,34.7,22.6,28.91,East,82,0.0,0.0,61,0.00,,,0.00,VWS V14.00,2013-01-06 17:00:00,
2013-01-06 12:02:00,34.7,22.6,28.91,ENE,71,0.0,0.0,61,0.00,,,0.00,VWS V14.00,2013-01-06 17:02:00,
2013-01-06 12:03:00,34.9,22.8,28.91,East,79,2.7,2.7,61,0.00,,,0.00,VWS V14.00,2013-01-06 17:03:00,
2013-01-06 12:04:00,34.9,22.8,28.91,East,81,2.7,2.7,61,0.00,,,0.00,VWS V14.00,2013-01-06 17:04:00,
2013-01-06 12:05:00,34.9,22.8,28.91,East,85,3.1,3.1,61,0.00,,,0.00,VWS V14.00,2013-01-06 17:05:00,
2013-01-06 12:07:00,34.9,22.8,28.91,ESE,110,4.0,4.0,61,0.00,,,0.00,VWS V14.00,2013-01-06 17:07:00,
2013-01-06 12:09:00,34.9,22.4,28.91,East,96,0.0,0.0,60,0.00,,,0.00,VWS V14.00,2013-01-06 17:09:00,
2013-01-06 12:10:00,34.9,22.4,28.88,ESE,122,4.9,4.9,60,0.00,,,0.00,VWS V14.00,2013-01-06 17:10:00,
2013-01-06 12:12:00,34.9,22.4,28.88,East,88,0.0,0.0,60,0.00,,,0.00,VWS V14.00,2013-01-06 17:12:00,
2013-01-06 12:14:00,34.9,22.4,28.88,ENE,60,0.0,0.0,60,0.00,,,0.00,VWS V14.00,2013-01-06 17:14:00,
2013-01-06 12:15:00,34.9,22.4,28.88,East,89,0.0,0.0,60,0.00,,,0.00,VWS V14.00,2013-01-06 17:15:00,
2013-01-06 12:17:00,34.9,22.4,28.88,East,87,0.0,0.0,60,0.00,,,0.00,VWS V14.00,2013-01-06 17:17:00,
2013-01-06 12:19:00,34.9,22.4,28.88,East,94,4.0,4.0,60,0.00,,,0.00,VWS V14.00,2013-01-06 17:19:00,
2013-01-06 12:20:00,34.9,22.0,28.88,East,81,4.0,4.0,59,0.00,,,0.00,VWS V14.00,2013-01-06 17:20:00,
2013-01-06 12:22:00,34.9,22.0,28.88,ENE,75,2.7,2.7,59,0.00,,,0.00,VWS V14.00,2013-01-06 17:22:00,
2013-01-06 12:24:00,34.9,22.0,28.88,ESE,108,0.0,0.0,59,0.00,,,0.00,VWS V14.00,2013-01-06 17:24:00,
2013-01-06 12:25:00,34.9,22.0,28.88,ESE,107,0.0,0.0,59,0.00,,,0.00,VWS V14.00,2013-01-06 17:25:00,
2013-01-06 12:27:00,34.9,22.0,28.88,ENE,77,0.0,0.0,59,0.00,,,0.00,VWS V14.00,2013-01-06 17:27:00,
2013-01-06 12:29:00,34.9,22.0,28.88,NW,307,2.7,2.7,59,0.00,,,0.00,VWS V14.00,2013-01-06 17:29:00,
2013-01-06 12:30:00,34.9,22.0,28.88,East,79,0.0,0.0,59,0.00,,,0.00,VWS V14.00,2013-01-06 17:30:00,
2013-01-06 12:32:00,34.9,22.0,28.88,East,90,0.0,0.0,59,0.00,,,0.00,VWS V14.00,2013-01-06 17:32:00,
2013-01-06 12:34:00,34.9,22.0,28.88,ENE,75,0.0,0.0,59,0.00,,,0.00,VWS V14.00,2013-01-06 17:34:00,
2013-01-06 12:35:00,34.9,22.0,28.88,NW,306,0.0,0.0,59,0.00,,,0.00,VWS V14.00,2013-01-06 17:35:00,
2013-01-06 12:37:00,34.9,22.0,28.88,East,93,2.7,2.7,59,0.00,,,0.00,VWS V14.00,2013-01-06 17:37:00,
2013-01-06 12:39:00,34.7,21.9,28.88,East,93,0.0,0.0,59,0.00,,,0.00,VWS V14.00,2013-01-06 17:39:00,
2013-01-06 12:40:00,34.7,21.9,28.88,East,93,0.0,0.0,59,0.00,,,0.00,VWS V14.00,2013-01-06 17:40:00,
2013-01-06 12:41:00,34.7,21.9,28.88,East,93,0.0,0.0,59,0.00,,,0.00,VWS V14.00,2013-01-06 17:41:00,
2013-01-06 12:42:00,34.7,21.9,28.88,East,93,0.0,0.0,59,0.00,,,0.00,VWS V14.00,2013-01-06 17:42:00,
2013-01-06 12:44:00,34.7,21.9,28.88,ENE,74,0.0,0.0,59,0.00,,,0.00,VWS V14.00,2013-01-06 17:44:00,
2013-01-06 12:45:00,34.5,21.7,28.88,ENE,73,0.0,0.0,59,0.00,,,0.00,VWS V14.00,2013-01-06 17:45:00,
2013-01-06 12:46:00,34.5,21.7,28.88,East,84,0.0,0.0,59,0.00,,,0.00,VWS V14.00,2013-01-06 17:46:00,
2013-01-06 12:47:00,34.5,21.7,28.88,East,83,0.0,0.0,59,0.00,,,0.00,VWS V14.00,2013-01-06 17:47:00,
2013-01-06 12:49:00,34.5,21.7,28.88,NE,54,0.0,0.0,59,0.00,,,0.00,VWS V14.00,2013-01-06 17:49:00,
2013-01-06 12:50:00,34.5,21.7,28.88,NE,54,0.0,0.0,59,0.00,,,0.00,VWS V14.00,2013-01-06 17:50:00,
2013-01-06 12:51:00,34.5,21.7,28.88,ENE,59,0.0,0.0,59,0.00,,,0.00,VWS V14.00,2013-01-06 17:51:00,
2013-01-06 12:52:00,34.5,21.7,28.88,ENE,59,0.0,0.0,59,0.00,,,0.00,VWS V14.00,2013-01-06 17:52:00,
2013-01-06 12:54:00,34.5,21.7,28.88,ENE,59,0.0,0.0,59,0.00,,,0.00,VWS V14.00,2013-01-06 17:54:00,
2013-01-06 12:55:00,34.5,21.7,28.88,ENE,59,0.0,0.0,59,0.00,,,0.00,VWS V14.00,2013-01-06 17:55:00,
2013-01-06 12:56:00,34.5,21.7,28.91,ENE,59,0.0,0.0,59,0.00,,,0.00,VWS V14.00,2013-01-06 17:56:00,
2013-01-06 12:57:00,34.5,21.7,28.91,ENE,59,0.0,0.0,59,0.00,,,0.00,VWS V14.00,2013-01-06 17:57:00,
2013-01-06 12:59:00,34.5,21.7,28.91,ENE,59,0.0,0.0,59,0.00,,,0.00,VWS V14.00,2013-01-06 17:59:00,
2013-01-06 13:00:00,34.5,21.7,28.91,ENE,59,0.0,0.0,59,0.00,,,0.00,VWS V14.00,2013-01-06 18:00:00,
2013-01-06 13:01:00,34.5,21.7,28.91,ENE,59,0.0,0.0,59,0.00,,,0.00,VWS V14.00,2013-01-06 18:01:00,
2013-01-06 13:03:00,34.5,22.1,28.91,ENE,64,0.0,0.0,60,0.00,,,0.00,VWS V14.00,2013-01-06 18:03:00,
2013-01-06 13:04:00,34.5,22.1,28.91,ENE,63,0.0,0.0,60,0.00,,,0.00,VWS V14.00,2013-01-06 18:04:00,
2013-01-06 13:05:00,34.5,22.1,28.91,East,80,0.0,0.0,60,0.00,,,0.00,VWS V14.00,2013-01-06 18:05:00,
2013-01-06 13:07:00,34.5,22.1,28.91,East,79,0.0,0.0,60,0.00,,,0.00,VWS V14.00,2013-01-06 18:07:00,
2013-01-06 13:08:00,34.5,22.1,28.91,ESE,114,0.0,0.0,60,0.00,,,0.00,VWS V14.00,2013-01-06 18:08:00,
2013-01-06 13:09:00,34.5,22.1,28.91,East,81,0.0,0.0,60,0.00,,,0.00,VWS V14.00,2013-01-06 18:09:00,
2013-01-06 13:10:00,34.5,22.1,28.91,East,81,0.0,0.0,60,0.00,,,0.00,VWS V14.00,2013-01-06 18:10:00,
2013-01-06 13:12:00,34.5,22.1,28.91,East,81,0.0,0.0,60,0.00,,,0.00,VWS V14.00,2013-01-06 18:12:00,
2013-01-06 13:13:00,34.5,22.1,28.91,East,81,0.0,0.0,60,0.00,,,0.00,VWS V14.00,2013-01-06 18:13:00,
2013-01-06 13:14:00,34.5,22.1,28.91,East,81,0.0,0.0,60,0.00,,,0.00,VWS V14.00,2013-01-06 18:14:00,
2013-01-06 13:15:00,34.5,22.1,28.91,East,81,0.0,0.0,60,0.00,,,0.00,VWS V14.00,2013-01-06 18:15:00,
2013-01-06 13:17:00,34.5,22.1,28.91,East,81,0.0,0.0,60,0.00,,,0.00,VWS V14.00,2013-01-06 18:17:00,
2013-01-06 13:18:00,34.5,22.1,28.91,SE,135,0.0,0.0,60,0.00,,,0.00,VWS V14.00,2013-01-06 18:18:00,
2013-01-06 13:19:00,34.5,22.5,28.91,East,85,0.0,0.0,61,0.00,,,0.00,VWS V14.00,2013-01-06 18:19:00,
2013-01-06 13:20:00,34.5,22.5,28.91,East,85,0.0,0.0,61,0.00,,,0.00,VWS V14.00,2013-01-06 18:20:00,
2013-01-06 13:22:00,34.7,22.6,28.91,ENE,72,0.0,0.0,61,0.00,,,0.00,VWS V14.00,2013-01-06 18:22:00,
2013-01-06 13:23:00,34.7,22.6,28.91,ENE,60,0.0,0.0,61,0.00,,,0.00,VWS V14.00,2013-01-06 18:23:00,
2013-01-06 13:24:00,34.7,22.6,28.91,ENE,60,0.0,0.0,61,0.00,,,0.00,VWS V14.00,2013-01-06 18:24:00,
2013-01-06 13:25:00,34.7,22.6,28.91,ENE,60,0.0,0.0,61,0.00,,,0.00,VWS V14.00,2013-01-06 18:25:00,
2013-01-06 13:27:00,34.7,22.6,28.91,ENE,75,0.0,0.0,61,0.00,,,0.00,VWS V14.00,2013-01-06 18:27:00,
2013-01-06 13:28:00,34.7,22.6,28.91,NE,56,0.0,0.0,61,0.00,,,0.00,VWS V14.00,2013-01-06 18:28:00,
2013-01-06 13:30:00,34.5,22.5,28.91,ENE,71,0.0,0.0,61,0.00,,,0.00,VWS V14.00,2013-01-06 18:30:00,
2013-01-06 13:31:00,34.5,22.5,28.91,NE,56,0.0,0.0,61,0.00,,,0.00,VWS V14.00,2013-01-06 18:31:00,
2013-01-06 13:32:00,34.5,22.5,28.91,East,100,0.0,0.0,61,0.00,,,0.00,VWS V14.00,2013-01-06 18:32:00,
2013-01-06 13:33:00,34.5,22.5,28.91,East,100,0.0,0.0,61,0.00,,,0.00,VWS V14.00,2013-01-06 18:33:00,
2013-01-06 13:35:00,34.5,22.5,28.91,East,82,0.0,0.0,61,0.00,,,0.00,VWS V14.00,2013-01-06 18:35:00,
2013-01-06 13:36:00,34.7,23.0,28.91,ENE,69,0.0,0.0,62,0.00,,,0.00,VWS V14.00,2013-01-06 18:36:00,
2013-01-06 13:37:00,34.7,23.0,28.91,ENE,69,0.0,0.0,62,0.00,,,0.00,VWS V14.00,2013-01-06 18:37:00,
2013-01-06 13:38:00,34.7,23.0,28.91,ENE,70,0.0,0.0,62,0.00,,,0.00,VWS V14.00,2013-01-06 18:38:00,
2013-01-06 13:40:00,34.7,23.0,28.91,ENE,69,0.0,0.0,62,0.00,,,0.00,VWS V14.00,2013-01-06 18:40:00,
2013-01-06 13:41:00,34.7,23.0,28.88,ENE,69,0.0,0.0,62,0.00,,,0.00,VWS V14.00,2013-01-06 18:41:00,
2013-01-06 13:43:00,34.7,23.0,28.88,ENE,69,0.0,0.0,62,0.00,,,0.00,VWS V14.00,2013-01-06 18:43:00,
2013-01-06 13:45:00,34.9,23.2,28.88,SE,137,0.0,0.0,62,0.00,,,0.00,VWS V14.00,2013-01-06 18:45:00,
2013-01-06 13:46:00,34.9,23.2,28.88,ESE,116,0.0,0.0,62,0.00,,,0.00,VWS V14.00,2013-01-06 18:46:00,
2013-01-06 13:48:00,34.9,23.2,28.88,East,87,0.0,0.0,62,0.00,,,0.00,VWS V14.00,2013-01-06 18:48:00,
2013-01-06 13:50:00,34.9,23.6,28.88,East,93,2.7,2.7,63,0.00,,,0.00,VWS V14.00,2013-01-06 18:50:00,
2013-01-06 13:51:00,34.9,23.6,28.88,East,93,0.0,0.0,63,0.00,,,0.00,VWS V14.00,2013-01-06 18:51:00,
2013-01-06 13:53:00,34.9,23.6,28.88,East,93,0.0,0.0,63,0.00,,,0.00,VWS V14.00,2013-01-06 18:53:00,
2013-01-06 13:55:00,34.9,23.6,28.88,ESE,107,0.0,0.0,63,0.00,,,0.00,VWS V14.00,2013-01-06 18:55:00,
2013-01-06 13:56:00,34.9,23.6,28.91,ESE,107,0.0,0.0,63,0.00,,,0.00,VWS V14.00,2013-01-06 18:56:00,
2013-01-06 13:58:00,35.1,23.8,28.91,ESE,120,0.0,0.0,63,0.00,,,0.00,VWS V14.00,2013-01-06 18:58:00,
2013-01-06 14:00:00,35.1,23.8,28.91,NNW,331,3.6,3.6,63,0.00,,,0.00,VWS V14.00,2013-01-06 19:00:00,
2013-01-06 14:01:00,35.1,23.8,28.91,ESE,117,0.0,0.0,63,0.00,,,0.00,VWS V14.00,2013-01-06 19:01:00,
2013-01-06 14:03:00,35.1,23.8,28.91,East,85,0.0,0.0,63,0.00,,,0.00,VWS V14.00,2013-01-06 19:03:00,
2013-01-06 14:05:00,35.1,23.8,28.91,ENE,58,2.7,2.7,63,0.00,,,0.00,VWS V14.00,2013-01-06 19:05:00,
2013-01-06 14:06:00,35.1,23.8,28.91,ENE,58,0.0,0.0,63,0.00,,,0.00,VWS V14.00,2013-01-06 19:06:00,
2013-01-06 14:08:00,35.1,23.8,28.91,ESE,108,4.5,4.5,63,0.00,,,0.00,VWS V14.00,2013-01-06 19:08:00,
2013-01-06 14:10:00,35.1,24.1,28.91,ENE,75,2.7,2.7,64,0.00,,,0.00,VWS V14.00,2013-01-06 19:10:00,
2013-01-06 14:11:00,35.1,24.1,28.91,East,84,2.7,2.7,64,0.00,,,0.00,VWS V14.00,2013-01-06 19:11:00,
2013-01-06 14:13:00,35.1,24.1,28.91,East,79,0.0,0.0,64,0.00,,,0.00,VWS V14.00,2013-01-06 19:13:00,
2013-01-06 14:14:00,35.1,24.1,28.91,East,95,0.0,0.0,64,0.00,,,0.00,VWS V14.00,2013-01-06 19:14:00,
2013-01-06 14:16:00,35.1,24.1,28.91,East,92,0.0,0.0,64,0.00,,,0.00,VWS V14.00,2013-01-06 19:16:00,
2013-01-06 14:19:00,34.9,24.0,28.91,East,81,2.2,2.2,64,0.00,,,0.00,VWS V14.00,2013-01-06 19:19:00,
2013-01-06 14:21:00,34.9,24.0,28.91,East,91,3.1,3.1,64,0.00,,,0.00,VWS V14.00,2013-01-06 19:21:00,
2013-01-06 14:24:00,34.9,24.0,28.91,East,88,0.0,0.0,64,0.00,,,0.00,VWS V14.00,2013-01-06 19:24:00,
2013-01-06 14:26:00,34.7,23.8,28.91,East,99,0.0,0.0,64,0.00,,,0.00,VWS V14.00,2013-01-06 19:26:00,
2013-01-06 14:29:00,34.7,23.8,28.91,ENE,71,2.7,2.7,64,0.00,,,0.00,VWS V14.00,2013-01-06 19:29:00,
2013-01-06 14:31:00,34.5,23.6,28.91,East,98,0.0,0.0,64,0.00,,,0.00,VWS V14.00,2013-01-06 19:31:00,
2013-01-06 14:34:00,34.5,23.6,28.91,ENE,75,3.1,3.1,64,0.00,,,0.00,VWS V14.00,2013-01-06 19:34:00,
2013-01-06 14:35:00,34.5,23.6,28.91,NE,50,2.7,2.7,64,0.00,,,0.00,VWS V14.00,2013-01-06 19:35:00,
2013-01-06 14:36:00,34.5,23.6,28.91,ENE,62,0.0,0.0,64,0.00,,,0.00,VWS V14.00,2013-01-06 19:36:00,
2013-01-06 14:37:00,34.5,23.6,28.91,NE,40,0.0,0.0,64,0.00,,,0.00,VWS V14.00,2013-01-06 19:37:00,
2013-01-06 14:39:00,34.5,23.6,28.91,SSE,148,0.0,0.0,64,0.00,,,0.00,VWS V14.00,2013-01-06 19:39:00,
2013-01-06 14:40:00,34.3,23.4,28.91,ENE,78,0.0,0.0,64,0.00,,,0.00,VWS V14.00,2013-01-06 19:40:00,
2013-01-06 14:42:00,34.3,23.4,28.91,ESE,119,2.7,2.7,64,0.00,,,0.00,VWS V14.00,2013-01-06 19:42:00,
2013-01-06 14:45:00,34.3,23.4,28.91,East,80,0.0,0.0,64,0.00,,,0.00,VWS V14.00,2013-01-06 19:45:00,
2013-01-06 14:47:00,34.3,23.4,28.91,East,79,0.0,0.0,64,0.00,,,0.00,VWS V14.00,2013-01-06 19:47:00,
2013-01-06 14:50:00,34.2,23.3,28.91,East,87,0.0,0.0,64,0.00,,,0.00,VWS V14.00,2013-01-06 19:50:00,
2013-01-06 14:52:00,34.2,23.3,28.91,East,87,0.0,0.0,64,0.00,,,0.00,VWS V14.00,2013-01-06 19:52:00,
2013-01-06 14:56:00,34.2,23.3,28.91,ESE,104,3.1,3.1,64,0.00,,,0.00,VWS V14.00,2013-01-06 19:56:00,
2013-01-06 14:57:00,34.0,23.1,28.91,East,87,0.0,0.0,64,0.00,,,0.00,VWS V14.00,2013-01-06 19:57:00,
2013-01-06 15:01:00,34.0,23.1,28.91,ESE,113,2.7,2.7,64,0.00,,,0.00,VWS V14.00,2013-01-06 20:01:00,
2013-01-06 15:03:00,34.0,23.5,28.91,East,92,3.1,3.1,65,0.00,,,0.00,VWS V14.00,2013-01-06 20:03:00,
2013-01-06 15:07:00,33.8,22.9,28.91,East,98,2.7,2.7,64,0.00,,,0.00,VWS V14.00,2013-01-06 20:07:00,
2013-01-06 15:08:00,33.8,23.3,28.91,ESE,108,3.6,3.6,65,0.00,,,0.00,VWS V14.00,2013-01-06 20:08:00,
2013-01-06 15:11:00,33.6,23.1,28.94,ESE,119,0.0,0.0,65,0.00,,,0.00,VWS V14.00,2013-01-06 20:11:00,
2013-01-06 15:13:00,33.6,23.1,28.94,East,90,2.2,2.2,65,0.00,,,0.00,VWS V14.00,2013-01-06 20:13:00,
2013-01-06 15:16:00,33.6,23.1,28.94,SE,129,2.2,2.2,65,0.00,,,0.00,VWS V14.00,2013-01-06 20:16:00,
2013-01-06 15:18:00,33.6,23.1,28.94,ESE,119,3.1,3.1,65,0.00,,,0.00,VWS V14.00,2013-01-06 20:18:00,
2013-01-06 15:19:00,33.6,23.1,28.94,ESE,123,0.0,0.0,65,0.00,,,0.00,VWS V14.00,2013-01-06 20:19:00,
2013-01-06 15:21:00,33.6,23.1,28.94,SW,214,0.0,0.0,65,0.00,,,0.00,VWS V14.00,2013-01-06 20:21:00,
2013-01-06 15:23:00,33.6,23.1,28.94,ESE,108,3.1,3.1,65,0.00,,,0.00,VWS V14.00,2013-01-06 20:23:00,
2013-01-06 15:24:00,33.6,23.1,28.94,ESE,108,3.6,3.6,65,0.00,,,0.00,VWS V14.00,2013-01-06 20:24:00,
2013-01-06 15:26:00,33.6,23.1,28.94,ESE,111,3.6,3.6,65,0.00,,,0.00,VWS V14.00,2013-01-06 20:26:00,
2013-01-06 15:27:00,33.6,23.1,28.94,ESE,110,4.9,4.9,65,0.00,,,0.00,VWS V14.00,2013-01-06 20:27:00,
2013-01-06 15:28:00,33.6,23.1,28.94,ESE,105,2.7,2.7,65,0.00,,,0.00,VWS V14.00,2013-01-06 20:28:00,
2013-01-06 15:29:00,33.6,23.1,28.94,ESE,103,0.0,0.0,65,0.00,,,0.00,VWS V14.00,2013-01-06 20:29:00,
2013-01-06 15:31:00,33.6,22.8,28.94,East,94,3.1,3.1,64,0.00,,,0.00,VWS V14.00,2013-01-06 20:31:00,
2013-01-06 15:32:00,33.6,22.8,28.94,ESE,116,3.1,3.1,64,0.00,,,0.00,VWS V14.00,2013-01-06 20:32:00,
2013-01-06 15:33:00,33.6,22.8,28.94,East,97,3.1,3.1,64,0.00,,,0.00,VWS V14.00,2013-01-06 20:33:00,
2013-01-06 15:34:00,33.6,22.8,28.94,SE,133,2.7,2.7,64,0.00,,,0.00,VWS V14.00,2013-01-06 20:34:00,
2013-01-06 15:36:00,33.6,22.8,28.94,ESE,103,3.6,3.6,64,0.00,,,0.00,VWS V14.00,2013-01-06 20:36:00,
2013-01-06 15:37:00,33.6,22.8,28.94,ESE,109,2.2,2.2,64,0.00,,,0.00,VWS V14.00,2013-01-06 20:37:00,
2013-01-06 15:38:00,33.6,22.8,28.94,ESE,103,2.2,2.2,64,0.00,,,0.00,VWS V14.00,2013-01-06 20:38:00,
2013-01-06 15:39:00,33.6,22.4,28.94,East,87,3.6,3.6,63,0.00,,,0.00,VWS V14.00,2013-01-06 20:39:00,
2013-01-06 15:41:00,33.6,22.4,28.94,ESE,104,0.0,0.0,63,0.00,,,0.00,VWS V14.00,2013-01-06 20:41:00,
2013-01-06 15:42:00,33.6,22.4,28.94,ESE,104,0.0,0.0,63,0.00,,,0.00,VWS V14.00,2013-01-06 20:42:00,
2013-01-06 15:43:00,33.6,22.4,28.94,East,101,2.2,2.2,63,0.00,,,0.00,VWS V14.00,2013-01-06 20:43:00,
2013-01-06 15:46:00,33.6,22.4,28.94,ESE,120,2.2,2.2,63,0.00,,,0.00,VWS V14.00,2013-01-06 20:46:00,
2013-01-06 15:47:00,33.6,22.4,28.94,SE,132,3.1,3.1,63,0.00,,,0.00,VWS V14.00,2013-01-06 20:47:00,
2013-01-06 15:49:00,33.6,22.0,28.94,SSW,196,0.0,0.0,62,0.00,,,0.00,VWS V14.00,2013-01-06 20:49:00,
2013-01-06 15:51:00,33.6,22.0,28.94,ESE,102,0.0,0.0,62,0.00,,,0.00,VWS V14.00,2013-01-06 20:51:00,
2013-01-06 15:52:00,33.6,22.0,28.94,SE,141,0.0,0.0,62,0.00,,,0.00,VWS V14.00,2013-01-06 20:52:00,
2013-01-06 15:54:00,33.6,22.0,28.94,East,100,3.6,3.6,62,0.00,,,0.00,VWS V14.00,2013-01-06 20:54:00,
2013-01-06 15:56:00,33.4,21.8,28.97,ESE,113,0.0,0.0,62,0.00,,,0.00,VWS V14.00,2013-01-06 20:56:00,
2013-01-06 15:58:00,33.4,21.5,28.97,ENE,68,0.0,0.0,61,0.00,,,0.00,VWS V14.00,2013-01-06 20:58:00,
2013-01-06 15:59:00,33.4,21.5,28.97,ESE,112,3.6,3.6,61,0.00,,,0.00,VWS V14.00,2013-01-06 20:59:00,
2013-01-06 16:00:00,33.4,21.5,28.97,ESE,107,3.1,3.1,61,0.00,,,0.00,VWS V14.00,2013-01-06 21:00:00,
2013-01-06 16:02:00,33.4,21.5,28.97,ENE,78,3.1,3.1,61,0.00,,,0.00,VWS V14.00,2013-01-06 21:02:00,
2013-01-06 16:03:00,33.4,21.5,28.97,ESE,116,0.0,0.0,61,0.00,,,0.00,VWS V14.00,2013-01-06 21:03:00,
2013-01-06 16:04:00,33.4,21.5,28.97,ESE,104,0.0,0.0,61,0.00,,,0.00,VWS V14.00,2013-01-06 21:04:00,
2013-01-06 16:05:00,33.4,21.5,28.97,NE,54,0.0,0.0,61,0.00,,,0.00,VWS V14.00,2013-01-06 21:05:00,
2013-01-06 16:07:00,33.4,21.5,28.97,NE,55,0.0,0.0,61,0.00,,,0.00,VWS V14.00,2013-01-06 21:07:00,
2013-01-06 16:08:00,33.4,21.5,28.97,NE,55,0.0,0.0,61,0.00,,,0.00,VWS V14.00,2013-01-06 21:08:00,
2013-01-06 16:09:00,33.3,21.3,28.97,NE,55,0.0,0.0,61,0.00,,,0.00,VWS V14.00,2013-01-06 21:09:00,
2013-01-06 16:10:00,33.3,20.9,28.97,ESE,106,0.0,0.0,60,0.00,,,0.00,VWS V14.00,2013-01-06 21:10:00,
2013-01-06 16:12:00,33.3,20.9,28.97,ENE,77,0.0,0.0,60,0.00,,,0.00,VWS V14.00,2013-01-06 21:12:00,
2013-01-06 16:13:00,33.3,20.9,28.97,ENE,78,0.0,0.0,60,0.00,,,0.00,VWS V14.00,2013-01-06 21:13:00,
2013-01-06 16:14:00,33.3,20.9,28.97,ENE,78,0.0,0.0,60,0.00,,,0.00,VWS V14.00,2013-01-06 21:14:00,
2013-01-06 16:15:00,33.3,20.9,28.97,ENE,77,0.0,0.0,60,0.00,,,0.00,VWS V14.00,2013-01-06 21:15:00,
2013-01-06 16:17:00,33.3,20.9,28.97,ENE,63,0.0,0.0,60,0.00,,,0.00,VWS V14.00,2013-01-06 21:17:00,
2013-01-06 16:18:00,33.3,20.9,28.97,ENE,62,0.0,0.0,60,0.00,,,0.00,VWS V14.00,2013-01-06 21:18:00,
2013-01-06 16:19:00,33.3,20.9,28.97,East,79,0.0,0.0,60,0.00,,,0.00,VWS V14.00,2013-01-06 21:19:00,
2013-01-06 16:20:00,33.3,20.9,28.97,ESE,105,0.0,0.0,60,0.00,,,0.00,VWS V14.00,2013-01-06 21:20:00,
2013-01-06 16:22:00,33.3,20.9,28.97,SE,126,0.0,0.0,60,0.00,,,0.00,VWS V14.00,2013-01-06 21:22:00,
2013-01-06 16:24:00,33.3,20.9,28.97,ESE,119,0.0,0.0,60,0.00,,,0.00,VWS V14.00,2013-01-06 21:24:00,
2013-01-06 16:26:00,33.3,20.9,28.97,East,93,0.0,0.0,60,0.00,,,0.00,VWS V14.00,2013-01-06 21:26:00,
2013-01-06 16:28:00,33.1,20.7,28.97,NE,52,3.6,3.6,60,0.00,,,0.00,VWS V14.00,2013-01-06 21:28:00,
2013-01-06 16:29:00,33.1,20.7,28.97,East,82,0.0,0.0,60,0.00,,,0.00,VWS V14.00,2013-01-06 21:29:00,
2013-01-06 16:30:00,33.1,20.7,28.97,East,93,0.0,0.0,60,0.00,,,0.00,VWS V14.00,2013-01-06 21:30:00,
2013-01-06 16:31:00,33.1,20.7,28.97,ESE,116,0.0,0.0,60,0.00,,,0.00,VWS V14.00,2013-01-06 21:31:00,
2013-01-06 16:33:00,33.1,20.7,28.97,ESE,112,3.1,3.1,60,0.00,,,0.00,VWS V14.00,2013-01-06 21:33:00,
2013-01-06 16:34:00,33.1,20.7,28.97,ESE,114,0.0,0.0,60,0.00,,,0.00,VWS V14.00,2013-01-06 21:34:00,
2013-01-06 16:35:00,33.1,20.7,28.97,East,98,0.0,0.0,60,0.00,,,0.00,VWS V14.00,2013-01-06 21:35:00,
2013-01-06 16:37:00,33.1,20.7,28.97,SE,140,0.0,0.0,60,0.00,,,0.00,VWS V14.00,2013-01-06 21:37:00,
2013-01-06 16:38:00,33.1,20.7,28.97,SE,133,0.0,0.0,60,0.00,,,0.00,VWS V14.00,2013-01-06 21:38:00,
2013-01-06 16:39:00,33.1,20.7,28.97,ESE,107,0.0,0.0,60,0.00,,,0.00,VWS V14.00,2013-01-06 21:39:00,
2013-01-06 16:40:00,33.1,20.3,28.97,ESE,106,0.0,0.0,59,0.00,,,0.00,VWS V14.00,2013-01-06 21:40:00,
2013-01-06 16:42:00,33.1,20.3,29.00,East,100,0.0,0.0,59,0.00,,,0.00,VWS V14.00,2013-01-06 21:42:00,
2013-01-06 16:43:00,33.1,20.3,29.00,ESE,109,0.0,0.0,59,0.00,,,0.00,VWS V14.00,2013-01-06 21:43:00,
2013-01-06 16:44:00,33.1,20.3,29.00,ESE,121,0.0,0.0,59,0.00,,,0.00,VWS V14.00,2013-01-06 21:44:00,
2013-01-06 16:45:00,33.1,20.3,29.00,ESE,111,0.0,0.0,59,0.00,,,0.00,VWS V14.00,2013-01-06 21:45:00,
2013-01-06 16:47:00,33.1,20.3,29.00,ESE,114,2.7,2.7,59,0.00,,,0.00,VWS V14.00,2013-01-06 21:47:00,
2013-01-06 16:48:00,33.1,20.3,29.00,SE,129,2.2,2.2,59,0.00,,,0.00,VWS V14.00,2013-01-06 21:48:00,
2013-01-06 16:49:00,33.1,20.3,29.00,SE,128,2.2,2.2,59,0.00,,,0.00,VWS V14.00,2013-01-06 21:49:00,
2013-01-06 16:51:00,33.1,19.9,29.00,SE,124,4.0,4.0,58,0.00,,,0.00,VWS V14.00,2013-01-06 21:51:00,
2013-01-06 16:52:00,33.1,19.9,29.00,SW,226,0.0,0.0,58,0.00,,,0.00,VWS V14.00,2013-01-06 21:52:00,
2013-01-06 16:53:00,33.1,19.9,29.00,East,92,5.8,5.8,58,0.00,,,0.00,VWS V14.00,2013-01-06 21:53:00,
2013-01-06 16:54:00,33.1,19.5,29.00,East,98,0.0,0.0,57,0.00,,,0.00,VWS V14.00,2013-01-06 21:54:00,
2013-01-06 16:56:00,33.1,19.1,29.00,SE,139,5.8,5.8,56,0.00,,,0.00,VWS V14.00,2013-01-06 21:56:00,
2013-01-06 16:57:00,33.1,18.7,29.00,ESE,122,3.1,3.1,55,0.00,,,0.00,VWS V14.00,2013-01-06 21:57:00,
2013-01-06 16:58:00,33.1,18.7,29.00,SE,133,0.0,0.0,55,0.00,,,0.00,VWS V14.00,2013-01-06 21:58:00,
2013-01-06 16:59:00,33.1,18.3,29.00,East,100,6.3,6.3,54,0.00,,,0.00,VWS V14.00,2013-01-06 21:59:00,
2013-01-06 17:01:00,33.1,17.8,29.00,SSE,148,2.2,2.2,53,0.00,,,0.00,VWS V14.00,2013-01-06 22:01:00,
2013-01-06 17:02:00,33.1,17.8,29.00,ESE,104,3.1,3.1,53,0.00,,OVC043,0.00,VWS V14.00,2013-01-06 22:02:00,
2013-01-06 17:03:00,32.9,17.2,29.00,ESE,113,0.0,0.0,52,0.00,,OVC043,0.00,VWS V14.00,2013-01-06 22:03:00,
2013-01-06 17:04:00,33.1,17.4,29.00,ESE,110,2.7,2.7,52,0.00,,OVC043,0.00,VWS V14.00,2013-01-06 22:04:00,
2013-01-06 17:06:00,33.1,16.9,29.00,NE,35,2.7,2.7,51,0.00,,OVC043,0.00,VWS V14.00,2013-01-06 22:06:00,
2013-01-06 17:07:00,33.1,16.9,29.00,ESE,120,3.1,3.1,51,0.00,,OVC043,0.00,VWS V14.00,2013-01-06 22:07:00,
2013-01-06 17:08:00,32.9,16.8,29.00,SSE,151,2.7,2.7,51,0.00,,OVC043,0.00,VWS V14.00,2013-01-06 22:08:00,
2013-01-06 17:09:00,32.9,16.8,29.00,ESE,117,2.2,2.2,51,0.00,,OVC043,0.00,VWS V14.00,2013-01-06 22:09:00,
2013-01-06 17:11:00,32.9,16.8,29.03,ESE,104,3.6,3.6,51,0.00,,OVC043,0.00,VWS V14.00,2013-01-06 22:11:00,
2013-01-06 17:12:00,32.9,16.3,29.03,ESE,108,3.1,3.1,50,0.00,,OVC043,0.00,VWS V14.00,2013-01-06 22:12:00,
2013-01-06 17:14:00,32.9,16.3,29.03,ESE,104,0.0,0.0,50,0.00,,OVC043,0.00,VWS V14.00,2013-01-06 22:14:00,
2013-01-06 17:16:00,32.9,16.3,29.03,ESE,107,2.2,2.2,50,0.00,,OVC043,0.00,VWS V14.00,2013-01-06 22:16:00,
2013-01-06 17:17:00,32.9,16.3,29.03,SSE,148,0.0,0.0,50,0.00,,OVC043,0.00,VWS V14.00,2013-01-06 22:17:00,
2013-01-06 17:19:00,32.9,15.9,29.03,SE,128,0.0,0.0,49,0.00,,OVC043,0.00,VWS V14.00,2013-01-06 22:19:00,
2013-01-06 17:21:00,32.9,15.9,29.03,ESE,102,4.0,4.0,49,0.00,,OVC043,0.00,VWS V14.00,2013-01-06 22:21:00,
2013-01-06 17:22:00,32.9,15.9,29.03,ESE,112,4.9,4.9,49,0.00,,OVC043,0.00,VWS V14.00,2013-01-06 22:22:00,
2013-01-06 17:24:00,32.9,15.9,29.03,East,100,2.7,2.7,49,0.00,,OVC043,0.00,VWS V14.00,2013-01-06 22:24:00,
2013-01-06 17:26:00,32.9,15.4,29.03,East,91,0.0,0.0,48,0.00,,OVC043,0.00,VWS V14.00,2013-01-06 22:26:00,
2013-01-06 17:28:00,32.9,15.4,29.03,ESE,118,2.7,2.7,48,0.00,,OVC043,0.00,VWS V14.00,2013-01-06 22:28:00,
2013-01-06 17:29:00,32.9,15.4,29.03,SE,124,2.7,2.7,48,0.00,,OVC043,0.00,VWS V14.00,2013-01-06 22:29:00,
2013-01-06 17:31:00,32.7,15.2,29.03,East,98,3.6,3.6,48,0.00,,OVC043,0.00,VWS V14.00,2013-01-06 22:31:00,
2013-01-06 17:33:00,32.7,14.7,29.03,SE,144,0.0,0.0,47,0.00,,OVC043,0.00,VWS V14.00,2013-01-06 22:33:00,
2013-01-06 17:34:00,32.7,14.7,29.03,South,171,2.2,2.2,47,0.00,,OVC043,0.00,VWS V14.00,2013-01-06 22:34:00,
2013-01-06 17:35:00,32.7,14.7,29.03,East,98,4.9,4.9,47,0.00,,OVC043,0.00,VWS V14.00,2013-01-06 22:35:00,
2013-01-06 17:36:00,32.7,14.7,29.03,ESE,106,3.1,3.1,47,0.00,,OVC043,0.00,VWS V14.00,2013-01-06 22:36:00,
2013-01-06 17:38:00,32.7,14.7,29.03,ESE,106,3.1,3.1,47,0.00,,OVC043,0.00,VWS V14.00,2013-01-06 22:38:00,
2013-01-06 17:39:00,32.7,14.7,29.03,East,96,0.0,0.0,47,0.00,,OVC043,0.00,VWS V14.00,2013-01-06 22:39:00,
2013-01-06 17:40:00,32.7,14.7,29.03,ESE,102,3.1,3.1,47,0.00,,OVC043,0.00,VWS V14.00,2013-01-06 22:40:00,
2013-01-06 17:42:00,32.7,14.7,29.03,SE,135,2.2,2.2,47,0.00,,OVC043,0.00,VWS V14.00,2013-01-06 22:42:00,
2013-01-06 17:43:00,32.7,14.7,29.03,SE,134,0.0,0.0,47,0.00,,OVC043,0.00,VWS V14.00,2013-01-06 22:43:00,
2013-01-06 17:44:00,32.7,14.7,29.03,ESE,108,3.6,3.6,47,0.00,,OVC043,0.00,VWS V14.00,2013-01-06 22:44:00,
2013-01-06 17:45:00,32.7,14.7,29.03,ESE,117,2.7,2.7,47,0.00,,OVC043,0.00,VWS V14.00,2013-01-06 22:45:00,
2013-01-06 17:47:00,32.7,14.2,29.03,ENE,75,2.7,2.7,46,0.00,,OVC043,0.00,VWS V14.00,2013-01-06 22:47:00,
2013-01-06 17:48:00,32.7,14.2,29.03,South,176,2.2,2.2,46,0.00,,OVC043,0.00,VWS V14.00,2013-01-06 22:48:00,
2013-01-06 17:49:00,32.7,14.2,29.03,SSE,161,2.2,2.2,46,0.00,,OVC043,0.00,VWS V14.00,2013-01-06 22:49:00,
2013-01-06 17:51:00,32.7,14.2,29.03,ESE,117,3.1,3.1,46,0.00,,OVC043,0.00,VWS V14.00,2013-01-06 22:51:00,
2013-01-06 17:52:00,32.7,14.2,29.03,ESE,109,5.8,5.8,46,0.00,,OVC043,0.00,VWS V14.00,2013-01-06 22:52:00,
2013-01-06 17:53:00,32.7,13.7,29.03,SSW,203,3.1,3.1,45,0.00,,OVC043,0.00,VWS V14.00,2013-01-06 22:53:00,
2013-01-06 17:55:00,32.7,13.7,29.03,ESE,103,4.0,4.0,45,0.00,,OVC043,0.00,VWS V14.00,2013-01-06 22:55:00,
2013-01-06 17:56:00,32.7,13.2,29.06,SE,128,3.1,3.1,44,0.00,,OVC043,0.00,VWS V14.00,2013-01-06 22:56:00,
2013-01-06 17:57:00,32.7,13.2,29.06,SE,142,2.2,2.2,44,0.00,,OVC043,0.00,VWS V14.00,2013-01-06 22:57:00,
2013-01-06 17:58:00,32.7,13.2,29.06,ESE,110,0.0,0.0,44,0.00,,OVC043,0.00,VWS V14.00,2013-01-06 22:58:00,
2013-01-06 18:00:00,32.7,13.2,29.06,East,94,0.0,0.0,44,0.00,,OVC043,0.00,VWS V14.00,2013-01-06 23:00:00,
2013-01-06 18:01:00,32.7,13.2,29.06,ESE,102,0.0,0.0,44,0.00,,OVC043,0.00,VWS V14.00,2013-01-06 23:01:00,
2013-01-06 18:02:00,32.7,13.7,29.06,ESE,113,0.0,0.0,45,0.00,,OVC023,0.00,VWS V14.00,2013-01-06 23:02:00,
2013-01-06 18:03:00,32.7,13.7,29.06,ESE,108,2.7,2.7,45,0.00,,OVC023,0.00,VWS V14.00,2013-01-06 23:03:00,
2013-01-06 18:05:00,32.7,13.7,29.06,ESE,110,3.1,3.1,45,0.00,,OVC023,0.00,VWS V14.00,2013-01-06 23:05:00,
2013-01-06 18:06:00,32.7,13.7,29.06,SE,133,0.0,0.0,45,0.00,,OVC023,0.00,VWS V14.00,2013-01-06 23:06:00,
2013-01-06 18:07:00,32.7,13.7,29.06,SSE,156,0.0,0.0,45,0.00,,OVC023,0.00,VWS V14.00,2013-01-06 23:07:00,
2013-01-06 18:08:00,32.7,13.7,29.06,South,177,3.1,3.1,45,0.00,,OVC023,0.00,VWS V14.00,2013-01-06 23:08:00,
2013-01-06 18:10:00,32.7,13.7,29.06,ESE,118,0.0,0.0,45,0.00,,OVC023,0.00,VWS V14.00,2013-01-06 23:10:00,
2013-01-06 18:11:00,32.7,13.7,29.06,ESE,106,0.0,0.0,45,0.00,,OVC023,0.00,VWS V14.00,2013-01-06 23:11:00,
2013-01-06 18:12:00,32.7,13.7,29.06,SE,142,2.2,2.2,45,0.00,,OVC023,0.00,VWS V14.00,2013-01-06 23:12:00,
2013-01-06 18:13:00,32.5,13.6,29.06,ESE,108,3.6,3.6,45,0.00,,OVC023,0.00,VWS V14.00,2013-01-06 23:13:00,
2013-01-06 18:15:00,32.5,13.6,29.06,East,99,3.6,3.6,45,0.00,,OVC023,0.00,VWS V14.00,2013-01-06 23:15:00,
2013-01-06 18:16:00,32.5,13.6,29.06,SE,126,0.0,0.0,45,0.00,,OVC023,0.00,VWS V14.00,2013-01-06 23:16:00,
2013-01-06 18:17:00,32.5,13.6,29.06,SE,125,0.0,0.0,45,0.00,,OVC023,0.00,VWS V14.00,2013-01-06 23:17:00,
2013-01-06 18:19:00,32.5,13.6,29.06,SE,124,2.7,2.7,45,0.00,,OVC023,0.00,VWS V14.00,2013-01-06 23:19:00,
2013-01-06 18:20:00,32.5,13.6,29.06,East,89,2.7,2.7,45,0.00,,OVC023,0.00,VWS V14.00,2013-01-06 23:20:00,
2013-01-06 18:21:00,32.5,13.6,29.06,ESE,107,3.1,3.1,45,0.00,,OVC023,0.00,VWS V14.00,2013-01-06 23:21:00,
2013-01-06 18:22:00,32.5,13.6,29.06,ESE,105,2.7,2.7,45,0.00,,OVC023,0.00,VWS V14.00,2013-01-06 23:22:00,
2013-01-06 18:24:00,32.5,13.6,29.06,ESE,112,0.0,0.0,45,0.00,,OVC023,0.00,VWS V14.00,2013-01-06 23:24:00,
2013-01-06 18:25:00,32.5,13.6,29.06,SE,129,0.0,0.0,45,0.00,,OVC023,0.00,VWS V14.00,2013-01-06 23:25:00,
2013-01-06 18:26:00,32.5,14.1,29.06,ESE,121,0.0,0.0,46,0.00,,OVC023,0.00,VWS V14.00,2013-01-06 23:26:00,
2013-01-06 18:27:00,32.5,14.1,29.06,SE,127,2.7,2.7,46,0.00,,OVC023,0.00,VWS V14.00,2013-01-06 23:27:00,
2013-01-06 18:29:00,32.5,14.1,29.06,ESE,110,0.0,0.0,46,0.00,,OVC023,0.00,VWS V14.00,2013-01-06 23:29:00,
2013-01-06 18:30:00,32.5,14.1,29.06,ENE,68,0.0,0.0,46,0.00,,OVC023,0.00,VWS V14.00,2013-01-06 23:30:00,
2013-01-06 18:32:00,32.5,14.1,29.06,SE,127,3.1,3.1,46,0.00,,OVC023,0.00,VWS V14.00,2013-01-06 23:32:00,
2013-01-06 18:34:00,32.5,14.1,29.06,ESE,102,4.0,4.0,46,0.00,,OVC023,0.00,VWS V14.00,2013-01-06 23:34:00,
2013-01-06 18:35:00,32.5,14.1,29.06,ESE,104,2.2,2.2,46,0.00,,OVC023,0.00,VWS V14.00,2013-01-06 23:35:00,
2013-01-06 18:37:00,32.5,14.1,29.06,East,100,2.7,2.7,46,0.00,,OVC023,0.00,VWS V14.00,2013-01-06 23:37:00,
2013-01-06 18:39:00,32.5,14.1,29.06,SE,133,0.0,0.0,46,0.00,,OVC023,0.00,VWS V14.00,2013-01-06 23:39:00,
2013-01-06 18:40:00,32.5,14.1,29.06,South,178,0.0,0.0,46,0.00,,OVC023,0.00,VWS V14.00,2013-01-06 23:40:00,
2013-01-06 18:42:00,32.5,14.1,29.09,ESE,106,4.0,4.0,46,0.00,,OVC023,0.00,VWS V14.00,2013-01-06 23:42:00,
2013-01-06 18:44:00,32.5,14.1,29.09,East,93,0.0,0.0,46,0.00,,OVC023,0.00,VWS V14.00,2013-01-06 23:44:00,
2013-01-06 18:45:00,32.4,13.9,29.09,ESE,114,0.0,0.0,46,0.00,,OVC023,0.00,VWS V14.00,2013-01-06 23:45:00,
2013-01-06 18:47:00,32.4,13.9,29.09,ESE,116,0.0,0.0,46,0.00,,OVC023,0.00,VWS V14.00,2013-01-06 23:47:00,
2013-01-06 18:49:00,32.4,14.4,29.09,ESE,117,2.2,2.2,47,0.00,,OVC023,0.00,VWS V14.00,2013-01-06 23:49:00,
2013-01-06 18:51:00,32.4,14.4,29.09,ESE,111,0.0,0.0,47,0.00,,OVC023,0.00,VWS V14.00,2013-01-06 23:51:00,
2013-01-06 18:52:00,32.4,14.4,29.09,ESE,108,2.7,2.7,47,0.00,,OVC023,0.00,VWS V14.00,2013-01-06 23:52:00,
2013-01-06 18:54:00,32.4,14.4,29.09,East,94,3.1,3.1,47,0.00,,OVC023,0.00,VWS V14.00,2013-01-06 23:54:00,
2013-01-06 18:56:00,32.4,14.4,29.09,SE,127,3.6,3.6,47,0.00,,OVC023,0.00,VWS V14.00,2013-01-06 23:56:00,
2013-01-06 18:57:00,32.4,14.4,29.09,ESE,115,2.7,2.7,47,0.00,,OVC023,0.00,VWS V14.00,2013-01-06 23:57:00,
2013-01-06 18:58:00,32.4,14.4,29.09,ESE,115,2.7,2.7,47,0.00,,OVC023,0.00,VWS V14.00,2013-01-06 23:58:00,
2013-01-06 19:00:00,32.4,14.4,29.09,East,88,3.6,3.6,47,0.00,,OVC023,0.00,VWS V14.00,2013-01-07 00:00:00,
2013-01-06 19:01:00,32.4,14.4,29.09,ESE,104,3.6,3.6,47,0.00,,OVC023,0.00,VWS V14.00,2013-01-07 00:01:00,
2013-01-06 19:02:00,32.4,14.4,29.09,SE,131,0.0,0.0,47,0.00,,OVC027,0.00,VWS V14.00,2013-01-07 00:02:00,
2013-01-06 19:03:00,32.4,14.4,29.09,SE,131,0.0,0.0,47,0.00,,OVC027,0.00,VWS V14.00,2013-01-07 00:03:00,
2013-01-06 19:05:00,32.4,14.4,29.09,ESE,104,2.7,2.7,47,0.00,,OVC027,0.00,VWS V14.00,2013-01-07 00:05:00,
2013-01-06 19:06:00,32.4,14.4,29.09,ESE,113,0.0,0.0,47,0.00,,OVC027,0.00,VWS V14.00,2013-01-07 00:06:00,
2013-01-06 19:07:00,32.4,14.4,29.09,ESE,113,3.6,3.6,47,0.00,,OVC027,0.00,VWS V14.00,2013-01-07 00:07:00,
2013-01-06 19:08:00,32.4,14.4,29.09,ESE,119,3.1,3.1,47,0.00,,OVC027,0.00,VWS V14.00,2013-01-07 00:08:00,
2013-01-06 19:10:00,32.4,14.4,29.09,SE,127,0.0,0.0,47,0.00,,OVC027,0.00,VWS V14.00,2013-01-07 00:10:00,
2013-01-06 19:11:00,32.4,14.4,29.12,East,93,2.7,2.7,47,0.00,,OVC027,0.00,VWS V14.00,2013-01-07 00:11:00,
2013-01-06 19:12:00,32.4,14.4,29.12,SE,143,3.6,3.6,47,0.00,,OVC027,0.00,VWS V14.00,2013-01-07 00:12:00,
2013-01-06 19:13:00,32.4,14.4,29.12,ESE,118,4.9,4.9,47,0.00,,OVC027,0.00,VWS V14.00,2013-01-07 00:13:00,
2013-01-06 19:15:00,32.4,14.4,29.12,ESE,105,2.7,2.7,47,0.00,,OVC027,0.00,VWS V14.00,2013-01-07 00:15:00,
2013-01-06 19:16:00,32.4,14.4,29.12,ESE,113,0.0,0.0,47,0.00,,OVC027,0.00,VWS V14.00,2013-01-07 00:16:00,
2013-01-06 19:18:00,32.4,14.4,29.12,ESE,119,2.7,2.7,47,0.00,,OVC027,0.00,VWS V14.00,2013-01-07 00:18:00,
2013-01-06 19:20:00,32.4,14.4,29.12,ESE,123,0.0,0.0,47,0.00,,OVC027,0.00,VWS V14.00,2013-01-07 00:20:00,
2013-01-06 19:21:00,32.4,14.4,29.12,ESE,119,0.0,0.0,47,0.00,,OVC027,0.00,VWS V14.00,2013-01-07 00:21:00,
2013-01-06 19:23:00,32.4,14.4,29.12,ESE,116,2.7,2.7,47,0.00,,OVC027,0.00,VWS V14.00,2013-01-07 00:23:00,
2013-01-06 19:24:00,32.4,14.4,29.12,SE,129,4.9,4.9,47,0.00,,OVC027,0.00,VWS V14.00,2013-01-07 00:24:00,
2013-01-06 19:25:00,32.4,14.4,29.12,ESE,112,0.0,0.0,47,0.00,,OVC027,0.00,VWS V14.00,2013-01-07 00:25:00,
2013-01-06 19:26:00,32.4,14.4,29.12,ESE,106,0.0,0.0,47,0.00,,OVC027,0.00,VWS V14.00,2013-01-07 00:26:00,
2013-01-06 19:28:00,32.4,14.4,29.12,ESE,105,3.1,3.1,47,0.00,,OVC027,0.00,VWS V14.00,2013-01-07 00:28:00,
2013-01-06 19:29:00,32.4,14.4,29.12,ESE,116,2.7,2.7,47,0.00,,OVC027,0.00,VWS V14.00,2013-01-07 00:29:00,
2013-01-06 19:30:00,32.4,14.4,29.12,East,89,3.6,3.6,47,0.00,,OVC027,0.00,VWS V14.00,2013-01-07 00:30:00,
2013-01-06 19:31:00,32.4,14.4,29.12,East,81,2.7,2.7,47,0.00,,OVC027,0.00,VWS V14.00,2013-01-07 00:31:00,
2013-01-06 19:33:00,32.2,14.2,29.12,ESE,107,2.7,2.7,47,0.00,,OVC027,0.00,VWS V14.00,2013-01-07 00:33:00,
2013-01-06 19:34:00,32.2,14.2,29.12,East,84,3.1,3.1,47,0.00,,OVC027,0.00,VWS V14.00,2013-01-07 00:34:00,
2013-01-06 19:35:00,32.2,14.7,29.12,ESE,118,3.6,3.6,48,0.00,,OVC027,0.00,VWS V14.00,2013-01-07 00:35:00,
2013-01-06 19:36:00,32.2,14.2,29.12,ESE,112,4.0,4.0,47,0.00,,OVC027,0.00,VWS V14.00,2013-01-07 00:36:00,
2013-01-06 19:38:00,32.2,14.2,29.12,ESE,112,5.8,5.8,47,0.00,,OVC027,0.00,VWS V14.00,2013-01-07 00:38:00,
2013-01-06 19:39:00,32.2,14.2,29.12,ESE,102,5.4,5.4,47,0.00,,OVC027,0.00,VWS V14.00,2013-01-07 00:39:00,
2013-01-06 19:40:00,32.2,14.2,29.12,East,101,3.6,3.6,47,0.00,,OVC027,0.00,VWS V14.00,2013-01-07 00:40:00,
2013-01-06 19:42:00,32.2,14.2,29.12,ESE,109,0.0,0.0,47,0.00,,OVC027,0.00,VWS V14.00,2013-01-07 00:42:00,
2013-01-06 19:44:00,32.2,14.2,29.12,ESE,113,2.7,2.7,47,0.00,,OVC027,0.00,VWS V14.00,2013-01-07 00:44:00,
2013-01-06 19:45:00,32.2,14.2,29.12,ESE,104,2.7,2.7,47,0.00,,OVC027,0.00,VWS V14.00,2013-01-07 00:45:00,
2013-01-06 19:47:00,32.2,14.2,29.12,ESE,109,3.1,3.1,47,0.00,,OVC027,0.00,VWS V14.00,2013-01-07 00:47:00,
2013-01-06 19:49:00,32.2,14.2,29.12,ESE,115,0.0,0.0,47,0.00,,OVC027,0.00,VWS V14.00,2013-01-07 00:49:00,
2013-01-06 19:51:00,32.2,14.7,29.12,ESE,105,0.0,0.0,48,0.00,,OVC027,0.00,VWS V14.00,2013-01-07 00:51:00,
2013-01-06 19:52:00,32.2,14.7,29.12,SE,142,0.0,0.0,48,0.00,,OVC027,0.00,VWS V14.00,2013-01-07 00:52:00,
2013-01-06 19:54:00,32.2,14.7,29.12,ESE,116,3.6,3.6,48,0.00,,OVC027,0.00,VWS V14.00,2013-01-07 00:54:00,
2013-01-06 19:56:00,32.2,14.7,29.15,ESE,113,2.2,2.2,48,0.00,,OVC027,0.00,VWS V14.00,2013-01-07 00:56:00,
2013-01-06 19:57:00,32.2,14.7,29.15,ESE,109,2.2,2.2,48,0.00,,OVC027,0.00,VWS V14.00,2013-01-07 00:57:00,
2013-01-06 19:59:00,32.2,14.7,29.15,ESE,116,2.7,2.7,48,0.00,,OVC027,0.00,VWS V14.00,2013-01-07 00:59:00,
2013-01-06 20:01:00,32.2,14.7,29.15,East,86,4.0,4.0,48,0.00,,OVC027,0.00,VWS V14.00,2013-01-07 01:01:00,
2013-01-06 20:02:00,32.2,14.7,29.15,East,99,2.2,2.2,48,0.00,,OVC019,0.00,VWS V14.00,2013-01-07 01:02:00,
2013-01-06 20:04:00,32.2,14.7,29.15,ESE,114,3.6,3.6,48,0.00,,OVC019,0.00,VWS V14.00,2013-01-07 01:04:00,
2013-01-06 20:06:00,32.2,14.7,29.15,SE,128,3.1,3.1,48,0.00,,OVC019,0.00,VWS V14.00,2013-01-07 01:06:00,
2013-01-06 20:07:00,32.2,14.7,29.15,ESE,104,4.0,4.0,48,0.00,,OVC019,0.00,VWS V14.00,2013-01-07 01:07:00,
2013-01-06 20:09:00,32.2,14.7,29.15,East,100,3.1,3.1,48,0.00,,OVC019,0.00,VWS V14.00,2013-01-07 01:09:00,
2013-01-06 20:12:00,32.2,15.2,29.15,East,99,5.4,5.4,49,0.00,,OVC019,0.00,VWS V14.00,2013-01-07 01:12:00,
2013-01-06 20:14:00,32.2,15.2,29.15,ESE,113,2.2,2.2,49,0.00,,OVC019,0.00,VWS V14.00,2013-01-07 01:14:00,
2013-01-06 20:17:00,32.2,15.2,29.15,ESE,116,2.7,2.7,49,0.00,,OVC019,0.00,VWS V14.00,2013-01-07 01:17:00,
2013-01-06 20:19:00,32.2,15.2,29.15,SE,128,4.0,4.0,49,0.00,,OVC019,0.00,VWS V14.00,2013-01-07 01:19:00,
2013-01-06 20:20:00,32.2,15.2,29.15,East,96,2.2,2.2,49,0.00,,OVC019,0.00,VWS V14.00,2013-01-07 01:20:00,
2013-01-06 20:22:00,32.2,15.2,29.15,ESE,104,2.7,2.7,49,0.00,,OVC019,0.00,VWS V14.00,2013-01-07 01:22:00,
2013-01-06 20:24:00,32.0,15.5,29.15,ESE,105,3.1,3.1,50,0.00,,OVC019,0.00,VWS V14.00,2013-01-07 01:24:00,
2013-01-06 20:25:00,32.0,15.5,29.15,SSW,193,3.6,3.6,50,0.00,,OVC019,0.00,VWS V14.00,2013-01-07 01:25:00,
2013-01-06 20:27:00,32.0,15.5,29.15,ESE,115,2.7,2.7,50,0.00,,OVC019,0.00,VWS V14.00,2013-01-07 01:27:00,
2013-01-06 20:30:00,32.0,15.5,29.15,SSE,162,0.0,0.0,50,0.00,,OVC019,0.00,VWS V14.00,2013-01-07 01:30:00,
2013-01-06 20:32:00,32.0,15.5,29.15,East,101,4.0,4.0,50,0.00,,OVC019,0.00,VWS V14.00,2013-01-07 01:32:00,
2013-01-06 20:33:00,32.0,15.5,29.15,SSE,164,0.0,0.0,50,0.00,,OVC019,0.00,VWS V14.00,2013-01-07 01:33:00,
2013-01-06 20:35:00,32.0,15.5,29.15,ESE,108,2.7,2.7,50,0.00,,OVC019,0.00,VWS V14.00,2013-01-07 01:35:00,
2013-01-06 20:37:00,32.0,15.5,29.15,East,90,6.3,6.3,50,0.00,,OVC019,0.00,VWS V14.00,2013-01-07 01:37:00,
2013-01-06 20:38:00,32.0,15.5,29.15,ESE,103,3.1,3.1,50,0.00,,OVC019,0.00,VWS V14.00,2013-01-07 01:38:00,
2013-01-06 20:40:00,32.0,15.5,29.15,SSE,168,0.0,0.0,50,0.00,,OVC019,0.00,VWS V14.00,2013-01-07 01:40:00,
2013-01-06 20:42:00,32.0,15.5,29.15,SE,133,0.0,0.0,50,0.00,,OVC019,0.00,VWS V14.00,2013-01-07 01:42:00,
2013-01-06 20:43:00,32.0,15.5,29.15,East,99,0.0,0.0,50,0.00,,OVC019,0.00,VWS V14.00,2013-01-07 01:43:00,
2013-01-06 20:45:00,32.0,15.5,29.15,SE,124,0.0,0.0,50,0.00,,OVC019,0.00,VWS V14.00,2013-01-07 01:45:00,
2013-01-06 20:46:00,32.0,15.5,29.15,SE,124,0.0,0.0,50,0.00,,OVC019,0.00,VWS V14.00,2013-01-07 01:46:00,
2013-01-06 20:47:00,32.0,15.5,29.15,East,91,0.0,0.0,50,0.00,,OVC019,0.00,VWS V14.00,2013-01-07 01:47:00,
2013-01-06 20:48:00,32.0,15.5,29.15,East,96,0.0,0.0,50,0.00,,OVC019,0.00,VWS V14.00,2013-01-07 01:48:00,
2013-01-06 20:50:00,32.0,15.5,29.15,SE,135,0.0,0.0,50,0.00,,OVC019,0.00,VWS V14.00,2013-01-07 01:50:00,
2013-01-06 20:51:00,32.0,15.5,29.15,ENE,77,0.0,0.0,50,0.00,,OVC019,0.00,VWS V14.00,2013-01-07 01:51:00,
2013-01-06 20:52:00,32.0,15.5,29.15,East,87,0.0,0.0,50,0.00,,OVC019,0.00,VWS V14.00,2013-01-07 01:52:00,
2013-01-06 20:53:00,32.0,15.5,29.15,East,98,2.7,2.7,50,0.00,,OVC019,0.00,VWS V14.00,2013-01-07 01:53:00,
2013-01-06 20:55:00,32.0,15.9,29.18,ESE,107,0.0,0.0,51,0.00,,OVC019,0.00,VWS V14.00,2013-01-07 01:55:00,
2013-01-06 20:56:00,32.0,15.9,29.18,ESE,107,0.0,0.0,51,0.00,,OVC019,0.00,VWS V14.00,2013-01-07 01:56:00,
2013-01-06 20:57:00,32.0,15.9,29.18,East,101,0.0,0.0,51,0.00,,OVC019,0.00,VWS V14.00,2013-01-07 01:57:00,
2013-01-06 20:58:00,32.0,15.9,29.18,East,101,0.0,0.0,51,0.00,,OVC019,0.00,VWS V14.00,2013-01-07 01:58:00,
2013-01-06 21:01:00,32.0,15.9,29.18,SSW,197,0.0,0.0,51,0.00,,OVC019,0.00,VWS V14.00,2013-01-07 02:01:00,
2013-01-06 21:02:00,32.0,15.9,29.18,East,90,0.0,0.0,51,0.00,,OVC019,0.00,VWS V14.00,2013-01-07 02:02:00,
2013-01-06 21:03:00,32.0,15.9,29.18,ESE,118,0.0,0.0,51,0.00,,OVC019,0.00,VWS V14.00,2013-01-07 02:03:00,
2013-01-06 21:06:00,32.0,15.9,29.18,ESE,118,0.0,0.0,51,0.00,,OVC019,0.00,VWS V14.00,2013-01-07 02:06:00,
2013-01-06 21:07:00,32.0,15.9,29.18,ESE,116,2.7,2.7,51,0.00,,OVC019,0.00,VWS V14.00,2013-01-07 02:07:00,
2013-01-06 21:08:00,32.0,15.9,29.18,SE,137,2.7,2.7,51,0.00,,OVC019,0.00,VWS V14.00,2013-01-07 02:08:00,
2013-01-06 21:11:00,32.0,15.9,29.18,ESE,120,2.2,2.2,51,0.00,,OVC019,0.00,VWS V14.00,2013-01-07 02:11:00,
2013-01-06 21:12:00,32.0,15.9,29.18,East,99,2.7,2.7,51,0.00,,OVC019,0.00,VWS V14.00,2013-01-07 02:12:00,
2013-01-06 21:13:00,32.0,15.9,29.18,ESE,123,0.0,0.0,51,0.00,,OVC019,0.00,VWS V14.00,2013-01-07 02:13:00,
2013-01-06 21:16:00,32.2,16.1,29.18,ESE,103,3.1,3.1,51,0.00,,OVC019,0.00,VWS V14.00,2013-01-07 02:16:00,
2013-01-06 21:17:00,32.2,16.1,29.18,ESE,113,3.1,3.1,51,0.00,,OVC019,0.00,VWS V14.00,2013-01-07 02:17:00,
2013-01-06 21:18:00,32.2,16.1,29.18,SE,124,2.2,2.2,51,0.00,,OVC019,0.00,VWS V14.00,2013-01-07 02:18:00,
2013-01-06 21:21:00,32.2,16.1,29.18,ESE,120,0.0,0.0,51,0.00,,OVC019,0.00,VWS V14.00,2013-01-07 02:21:00,
2013-01-06 21:23:00,32.2,16.1,29.18,SE,133,0.0,0.0,51,0.00,,OVC019,0.00,VWS V14.00,2013-01-07 02:23:00,
2013-01-06 21:26:00,32.2,16.1,29.18,ESE,109,3.1,3.1,51,0.00,,OVC019,0.00,VWS V14.00,2013-01-07 02:26:00,
2013-01-06 21:28:00,32.2,16.1,29.18,ESE,102,4.0,4.0,51,0.00,,OVC019,0.00,VWS V14.00,2013-01-07 02:28:00,
2013-01-06 21:29:00,32.2,16.1,29.18,ESE,113,2.7,2.7,51,0.00,,OVC019,0.00,VWS V14.00,2013-01-07 02:29:00,
2013-01-06 21:31:00,32.2,16.1,29.18,ESE,107,4.0,4.0,51,0.00,,OVC019,0.00,VWS V14.00,2013-01-07 02:31:00,
2013-01-06 21:33:00,32.2,16.1,29.18,ESE,116,2.7,2.7,51,0.00,,OVC019,0.00,VWS V14.00,2013-01-07 02:33:00,
2013-01-06 21:34:00,32.2,16.1,29.18,ESE,105,3.1,3.1,51,0.00,,OVC019,0.00,VWS V14.00,2013-01-07 02:34:00,
2013-01-06 21:36:00,32.2,16.1,29.18,ESE,109,3.6,3.6,51,0.00,,OVC019,0.00,VWS V14.00,2013-01-07 02:36:00,
2013-01-06 21:38:00,32.2,16.1,29.18,ESE,114,0.0,0.0,51,0.00,,OVC019,0.00,VWS V14.00,2013-01-07 02:38:00,
2013-01-06 21:39:00,32.2,16.1,29.18,ESE,114,2.2,2.2,51,0.00,,OVC019,0.00,VWS V14.00,2013-01-07 02:39:00,
2013-01-06 21:41:00,32.2,16.1,29.18,ESE,104,4.9,4.9,51,0.00,,OVC019,0.00,VWS V14.00,2013-01-07 02:41:00,
2013-01-06 21:42:00,32.2,16.1,29.18,ESE,104,4.9,4.9,51,0.00,,OVC019,0.00,VWS V14.00,2013-01-07 02:42:00,
2013-01-06 21:43:00,32.2,16.1,29.18,SE,130,2.2,2.2,51,0.00,,OVC019,0.00,VWS V14.00,2013-01-07 02:43:00,
2013-01-06 21:44:00,32.2,16.1,29.18,ESE,118,4.0,4.0,51,0.00,,OVC019,0.00,VWS V14.00,2013-01-07 02:44:00,
2013-01-06 21:46:00,32.2,16.1,29.18,East,94,3.1,3.1,51,0.00,,OVC019,0.00,VWS V14.00,2013-01-07 02:46:00,
2013-01-06 21:47:00,32.2,16.1,29.18,East,94,3.1,3.1,51,0.00,,OVC019,0.00,VWS V14.00,2013-01-07 02:47:00,
2013-01-06 21:48:00,32.2,16.1,29.18,ESE,102,2.2,2.2,51,0.00,,OVC019,0.00,VWS V14.00,2013-01-07 02:48:00,
2013-01-06 21:49:00,32.2,16.1,29.18,ESE,104,4.0,4.0,51,0.00,,OVC019,0.00,VWS V14.00,2013-01-07 02:49:00,
2013-01-06 21:52:00,32.2,16.1,29.18,SE,126,2.2,2.2,51,0.00,,OVC019,0.00,VWS V14.00,2013-01-07 02:52:00,
2013-01-06 21:53:00,32.2,16.1,29.18,ESE,102,3.6,3.6,51,0.00,,OVC019,0.00,VWS V14.00,2013-01-07 02:53:00,
2013-01-06 21:54:00,32.2,16.1,29.18,East,98,2.7,2.7,51,0.00,,OVC019,0.00,VWS V14.00,2013-01-07 02:54:00,
2013-01-06 21:57:00,32.2,16.1,29.18,ESE,116,2.2,2.2,51,0.00,,OVC019,0.00,VWS V14.00,2013-01-07 02:57:00,
2013-01-06 21:58:00,32.2,16.1,29.18,ESE,110,2.7,2.7,51,0.00,,OVC025,0.00,VWS V14.00,2013-01-07 02:58:00,
2013-01-06 21:59:00,32.2,16.1,29.18,ESE,110,2.7,2.7,51,0.00,,OVC025,0.00,VWS V14.00,2013-01-07 02:59:00,
2013-01-06 22:02:00,32.2,16.1,29.18,ESE,105,3.6,3.6,51,0.00,,OVC025,0.00,VWS V14.00,2013-01-07 03:02:00,
2013-01-06 22:03:00,32.2,16.1,29.18,ESE,105,3.6,3.6,51,0.00,,OVC025,0.00,VWS V14.00,2013-01-07 03:03:00,
2013-01-06 22:04:00,32.2,16.1,29.18,ESE,109,3.1,3.1,51,0.00,,OVC025,0.00,VWS V14.00,2013-01-07 03:04:00,
2013-01-06 22:07:00,32.2,16.1,29.18,ESE,107,0.0,0.0,51,0.00,,OVC025,0.00,VWS V14.00,2013-01-07 03:07:00,
2013-01-06 22:08:00,32.2,16.1,29.18,ESE,109,3.1,3.1,51,0.00,,OVC025,0.00,VWS V14.00,2013-01-07 03:08:00,
2013-01-06 22:09:00,32.2,16.1,29.18,ESE,109,2.7,2.7,51,0.00,,OVC025,0.00,VWS V14.00,2013-01-07 03:09:00,
2013-01-06 22:12:00,32.2,16.1,29.18,East,100,0.0,0.0,51,0.00,,OVC025,0.00,VWS V14.00,2013-01-07 03:12:00,
2013-01-06 22:13:00,32.2,16.1,29.18,ESE,102,0.0,0.0,51,0.00,,OVC025,0.00,VWS V14.00,2013-01-07 03:13:00,
2013-01-06 22:14:00,32.2,16.1,29.18,ESE,120,2.7,2.7,51,0.00,,OVC025,0.00,VWS V14.00,2013-01-07 03:14:00,
2013-01-06 22:17:00,32.2,16.1,29.18,South,176,0.0,0.0,51,0.00,,OVC025,0.00,VWS V14.00,2013-01-07 03:17:00,
2013-01-06 22:18:00,32.0,15.9,29.18,SE,125,0.0,0.0,51,0.00,,OVC025,0.00,VWS V14.00,2013-01-07 03:18:00,
2013-01-06 22:19:00,32.0,15.9,29.18,East,99,4.0,4.0,51,0.00,,OVC025,0.00,VWS V14.00,2013-01-07 03:19:00,
2013-01-06 22:22:00,32.0,15.9,29.18,SE,131,3.1,3.1,51,0.00,,OVC025,0.00,VWS V14.00,2013-01-07 03:22:00,
2013-01-06 22:23:00,32.0,15.9,29.18,ESE,105,2.7,2.7,51,0.00,,OVC025,0.00,VWS V14.00,2013-01-07 03:23:00,
2013-01-06 22:24:00,32.0,15.9,29.18,SSE,150,0.0,0.0,51,0.00,,OVC025,0.00,VWS V14.00,2013-01-07 03:24:00,
2013-01-06 22:27:00,32.2,16.5,29.21,ESE,102,3.1,3.1,52,0.00,,OVC025,0.00,VWS V14.00,2013-01-07 03:27:00,
2013-01-06 22:28:00,32.2,16.5,29.21,East,101,3.1,3.1,52,0.00,,OVC025,0.00,VWS V14.00,2013-01-07 03:28:00,
2013-01-06 22:30:00,32.0,16.4,29.21,ESE,113,2.7,2.7,52,0.00,,OVC025,0.00,VWS V14.00,2013-01-07 03:30:00,
2013-01-06 22:32:00,32.0,16.4,29.21,ESE,104,0.0,0.0,52,0.00,,OVC025,0.00,VWS V14.00,2013-01-07 03:32:00,
2013-01-06 22:34:00,32.0,16.4,29.21,ESE,117,3.1,3.1,52,0.00,,OVC025,0.00,VWS V14.00,2013-01-07 03:34:00,
2013-01-06 22:35:00,32.0,16.4,29.21,ESE,117,3.1,3.1,52,0.00,,OVC025,0.00,VWS V14.00,2013-01-07 03:35:00,
2013-01-06 22:37:00,32.0,16.4,29.21,SSW,196,0.0,0.0,52,0.00,,OVC025,0.00,VWS V14.00,2013-01-07 03:37:00,
2013-01-06 22:38:00,32.0,16.4,29.21,SSW,196,0.0,0.0,52,0.00,,OVC025,0.00,VWS V14.00,2013-01-07 03:38:00,
2013-01-06 22:39:00,32.0,16.4,29.21,SSW,197,0.0,0.0,52,0.00,,OVC025,0.00,VWS V14.00,2013-01-07 03:39:00,
2013-01-06 22:40:00,32.0,16.4,29.21,ESE,102,0.0,0.0,52,0.00,,OVC025,0.00,VWS V14.00,2013-01-07 03:40:00,
2013-01-06 22:42:00,32.0,16.4,29.21,South,174,0.0,0.0,52,0.00,,OVC025,0.00,VWS V14.00,2013-01-07 03:42:00,
2013-01-06 22:43:00,32.0,16.4,29.21,ESE,108,3.6,3.6,52,0.00,,OVC025,0.00,VWS V14.00,2013-01-07 03:43:00,
2013-01-06 22:44:00,32.0,16.4,29.21,East,101,2.7,2.7,52,0.00,,OVC025,0.00,VWS V14.00,2013-01-07 03:44:00,
2013-01-06 22:45:00,32.0,16.4,29.21,ESE,102,0.0,0.0,52,0.00,,OVC025,0.00,VWS V14.00,2013-01-07 03:45:00,
2013-01-06 22:47:00,32.0,16.4,29.21,SE,133,0.0,0.0,52,0.00,,OVC025,0.00,VWS V14.00,2013-01-07 03:47:00,
2013-01-06 22:48:00,32.0,16.4,29.21,SE,132,0.0,0.0,52,0.00,,OVC025,0.00,VWS V14.00,2013-01-07 03:48:00,
2013-01-06 22:49:00,32.0,16.4,29.21,SE,132,0.0,0.0,52,0.00,,OVC025,0.00,VWS V14.00,2013-01-07 03:49:00,
2013-01-06 22:50:00,32.0,16.4,29.21,SE,132,0.0,0.0,52,0.00,,OVC025,0.00,VWS V14.00,2013-01-07 03:50:00,
2013-01-06 22:52:00,32.0,16.8,29.21,ESE,119,2.7,2.7,53,0.00,,OVC025,0.00,VWS V14.00,2013-01-07 03:52:00,
2013-01-06 22:53:00,32.0,16.8,29.21,ESE,106,3.1,3.1,53,0.00,,OVC025,0.00,VWS V14.00,2013-01-07 03:53:00,
2013-01-06 22:55:00,32.0,16.8,29.21,ESE,110,3.1,3.1,53,0.00,,OVC025,0.00,VWS V14.00,2013-01-07 03:55:00,
2013-01-06 22:57:00,32.0,16.8,29.21,South,171,0.0,0.0,53,0.00,,OVC016,0.00,VWS V14.00,2013-01-07 03:57:00,
2013-01-06 22:58:00,32.0,16.8,29.21,ESE,117,0.0,0.0,53,0.00,,OVC016,0.00,VWS V14.00,2013-01-07 03:58:00,
2013-01-06 23:00:00,32.0,16.8,29.21,ESE,110,0.0,0.0,53,0.00,,OVC016,0.00,VWS V14.00,2013-01-07 04:00:00,
2013-01-06 23:01:00,32.0,16.8,29.21,ESE,106,4.0,4.0,53,0.00,,OVC016,0.00,VWS V14.00,2013-01-07 04:01:00,
2013-01-06 23:03:00,31.8,16.6,29.21,ESE,105,0.0,0.0,53,0.00,,OVC016,0.00,VWS V14.00,2013-01-07 04:03:00,
2013-01-06 23:05:00,31.8,16.6,29.21,ESE,115,2.2,2.2,53,0.00,,OVC016,0.00,VWS V14.00,2013-01-07 04:05:00,
2013-01-06 23:06:00,32.0,16.8,29.21,SE,124,3.6,3.6,53,0.00,,OVC016,0.00,VWS V14.00,2013-01-07 04:06:00,
2013-01-06 23:08:00,32.0,16.8,29.21,ESE,105,0.0,0.0,53,0.00,,OVC016,0.00,VWS V14.00,2013-01-07 04:08:00,
2013-01-06 23:10:00,32.0,16.8,29.21,East,97,4.0,4.0,53,0.00,,OVC016,0.00,VWS V14.00,2013-01-07 04:10:00,
2013-01-06 23:11:00,32.0,16.8,29.21,SSW,200,2.2,2.2,53,0.00,,OVC016,0.00,VWS V14.00,2013-01-07 04:11:00,
2013-01-06 23:13:00,32.0,16.8,29.21,South,185,0.0,0.0,53,0.00,,OVC016,0.00,VWS V14.00,2013-01-07 04:13:00,
2013-01-06 23:14:00,32.0,16.8,29.21,ESE,107,0.0,0.0,53,0.00,,OVC016,0.00,VWS V14.00,2013-01-07 04:14:00,
2013-01-06 23:15:00,32.0,16.8,29.21,SSW,194,0.0,0.0,53,0.00,,OVC016,0.00,VWS V14.00,2013-01-07 04:15:00,
2013-01-06 23:16:00,32.0,16.8,29.21,SSW,193,0.0,0.0,53,0.00,,OVC016,0.00,VWS V14.00,2013-01-07 04:16:00,
2013-01-06 23:18:00,32.0,16.8,29.21,ESE,102,0.0,0.0,53,0.00,,OVC016,0.00,VWS V14.00,2013-01-07 04:18:00,
2013-01-06 23:19:00,32.0,16.8,29.21,ESE,102,0.0,0.0,53,0.00,,OVC016,0.00,VWS V14.00,2013-01-07 04:19:00,
2013-01-06 23:20:00,32.0,16.8,29.21,ESE,102,0.0,0.0,53,0.00,,OVC016,0.00,VWS V14.00,2013-01-07 04:20:00,
2013-01-06 23:21:00,32.0,16.8,29.21,SE,144,0.0,0.0,53,0.00,,OVC016,0.00,VWS V14.00,2013-01-07 04:21:00,
2013-01-06 23:23:00,31.8,16.6,29.21,ESE,118,0.0,0.0,53,0.00,,OVC016,0.00,VWS V14.00,2013-01-07 04:23:00,
2013-01-06 23:24:00,31.8,16.6,29.21,ESE,118,0.0,0.0,53,0.00,,OVC016,0.00,VWS V14.00,2013-01-07 04:24:00,
2013-01-06 23:25:00,31.8,16.6,29.21,SSW,197,0.0,0.0,53,0.00,,OVC016,0.00,VWS V14.00,2013-01-07 04:25:00,
2013-01-06 23:26:00,31.8,16.6,29.23,SSW,197,0.0,0.0,53,0.00,,OVC016,0.00,VWS V14.00,2013-01-07 04:26:00,
2013-01-06 23:28:00,31.8,16.6,29.23,ESE,108,0.0,0.0,53,0.00,,OVC016,0.00,VWS V14.00,2013-01-07 04:28:00,
2013-01-06 23:29:00,31.8,16.6,29.23,ESE,108,0.0,0.0,53,0.00,,OVC016,0.00,VWS V14.00,2013-01-07 04:29:00,
2013-01-06 23:30:00,31.8,16.6,29.23,ESE,111,0.0,0.0,53,0.00,,OVC016,0.00,VWS V14.00,2013-01-07 04:30:00,
2013-01-06 23:31:00,31.8,16.6,29.23,ESE,111,0.0,0.0,53,0.00,,OVC016,0.00,VWS V14.00,2013-01-07 04:31:00,
2013-01-06 23:33:00,31.8,16.6,29.23,ESE,111,0.0,0.0,53,0.00,,OVC016,0.00,VWS V14.00,2013-01-07 04:33:00,
2013-01-06 23:34:00,31.8,16.6,29.23,ESE,110,2.7,2.7,53,0.00,,OVC016,0.00,VWS V14.00,2013-01-07 04:34:00,
2013-01-06 23:35:00,31.8,16.6,29.23,ESE,103,0.0,0.0,53,0.00,,OVC016,0.00,VWS V14.00,2013-01-07 04:35:00,
2013-01-06 23:36:00,31.8,16.6,29.23,South,185,0.0,0.0,53,0.00,,OVC016,0.00,VWS V14.00,2013-01-07 04:36:00,
2013-01-06 23:38:00,31.8,16.6,29.23,ESE,105,0.0,0.0,53,0.00,,OVC016,0.00,VWS V14.00,2013-01-07 04:38:00,
2013-01-06 23:39:00,31.8,16.6,29.23,ESE,105,0.0,0.0,53,0.00,,OVC016,0.00,VWS V14.00,2013-01-07 04:39:00,
2013-01-06 23:40:00,31.8,16.6,29.23,ESE,122,0.0,0.0,53,0.00,,OVC016,0.00,VWS V14.00,2013-01-07 04:40:00,
2013-01-06 23:41:00,31.8,16.6,29.23,ESE,123,2.7,2.7,53,0.00,,OVC016,0.00,VWS V14.00,2013-01-07 04:41:00,
2013-01-06 23:43:00,31.8,16.6,29.23,SE,138,0.0,0.0,53,0.00,,OVC016,0.00,VWS V14.00,2013-01-07 04:43:00,
2013-01-06 23:44:00,31.8,16.6,29.23,SE,138,0.0,0.0,53,0.00,,OVC016,0.00,VWS V14.00,2013-01-07 04:44:00,
2013-01-06 23:46:00,31.8,16.6,29.23,South,182,2.7,2.7,53,0.00,,OVC016,0.00,VWS V14.00,2013-01-07 04:46:00,
2013-01-06 23:47:00,31.8,16.6,29.23,ESE,116,3.6,3.6,53,0.00,,OVC016,0.00,VWS V14.00,2013-01-07 04:47:00,
2013-01-06 23:48:00,31.8,16.6,29.23,ESE,123,0.0,0.0,53,0.00,,OVC016,0.00,VWS V14.00,2013-01-07 04:48:00,
2013-01-06 23:49:00,31.8,16.6,29.23,SSE,158,0.0,0.0,53,0.00,,OVC016,0.00,VWS V14.00,2013-01-07 04:49:00,
2013-01-06 23:51:00,31.8,16.6,29.23,South,169,0.0,0.0,53,0.00,,OVC016,0.00,VWS V14.00,2013-01-07 04:51:00,
2013-01-06 23:52:00,31.8,16.6,29.23,South,189,0.0,0.0,53,0.00,,OVC016,0.00,VWS V14.00,2013-01-07 04:52:00,
2013-01-06 23:53:00,31.8,16.6,29.23,ENE,74,0.0,0.0,53,0.00,,OVC016,0.00,VWS V14.00,2013-01-07 04:53:00,
2013-01-06 23:54:00,31.8,16.6,29.23,South,184,0.0,0.0,53,0.00,,OVC016,0.00,VWS V14.00,2013-01-07 04:54:00,
2013-01-06 23:56:00,31.8,16.6,29.23,SSW,197,0.0,0.0,53,0.00,,OVC016,0.00,VWS V14.00,2013-01-07 04:56:00,
2013-01-06 23:57:00,31.6,16.5,29.23,SSW,196,0.0,0.0,53,0.00,,OVC039,0.00,VWS V14.00,2013-01-07 04:57:00,
2013-01-06 23:59:00,31.6,16.5,29.23,South,180,0.0,0.0,53,0.00,,OVC039,0.00,VWS V14.00,2013-01-07 04:59:00,